<?xml version="1.0" encoding="UTF-8" standalone="no" ?>
<gpx xmlns="http://www.topografix.com/GPX/1/1" xmlns:xsi="http://www.w3.org/2001/XMLSchema-instance" xsi:schemaLocation="http://www.topografix.com/GPX/1/1 http://www.topografix.com/GPX/1/1/gpx.xsd" version="1.1" creator="VisuGPX - https://www.visugpx.com">
  <metadata>
    <name>2020-01-13 15:30:27</name>
  </metadata>
  <trk>
    <name><![CDATA[2020-01-13 15:30:27]]></name>
    <trkseg>
      <trkpt lat="44.09995" lon="6.21213">
        <ele>739.39</ele>
        <time>2020-01-13T11:31:08Z</time>
      </trkpt>
      <trkpt lat="44.09995" lon="6.21213">
        <ele>739.39</ele>
        <time>2020-01-13T11:31:09Z</time>
      </trkpt>
      <trkpt lat="44.09987" lon="6.21214">
        <ele>2968.69</ele>
        <time>2020-01-13T11:31:21Z</time>
      </trkpt>
      <trkpt lat="44.09987" lon="6.21214">
        <ele>2968.69</ele>
        <time>2020-01-13T11:31:22Z</time>
      </trkpt>
      <trkpt lat="44.09986" lon="6.21214">
        <ele>638.45</ele>
        <time>2020-01-13T11:31:24Z</time>
      </trkpt>
      <trkpt lat="44.09986" lon="6.21215">
        <ele>637.01</ele>
        <time>2020-01-13T11:31:26Z</time>
      </trkpt>
      <trkpt lat="44.09987" lon="6.21217">
        <ele>637.49</ele>
        <time>2020-01-13T11:31:32Z</time>
      </trkpt>
      <trkpt lat="44.09985" lon="6.21218">
        <ele>637.49</ele>
        <time>2020-01-13T11:31:35Z</time>
      </trkpt>
      <trkpt lat="44.09984" lon="6.2122">
        <ele>638.45</ele>
        <time>2020-01-13T11:31:42Z</time>
      </trkpt>
      <trkpt lat="44.09984" lon="6.21227">
        <ele>639.41</ele>
        <time>2020-01-13T11:31:53Z</time>
      </trkpt>
      <trkpt lat="44.09982" lon="6.21229">
        <ele>638.93</ele>
        <time>2020-01-13T11:32:01Z</time>
      </trkpt>
      <trkpt lat="44.09984" lon="6.21225">
        <ele>638.93</ele>
        <time>2020-01-13T11:32:11Z</time>
      </trkpt>
      <trkpt lat="44.09983" lon="6.21224">
        <ele>639.89</ele>
        <time>2020-01-13T11:32:23Z</time>
      </trkpt>
      <trkpt lat="44.09982" lon="6.21224">
        <ele>640.86</ele>
        <time>2020-01-13T11:32:38Z</time>
      </trkpt>
      <trkpt lat="44.09981" lon="6.21233">
        <ele>642.78</ele>
        <time>2020-01-13T11:33:08Z</time>
      </trkpt>
      <trkpt lat="44.09984" lon="6.21235">
        <ele>644.7</ele>
        <time>2020-01-13T11:33:36Z</time>
      </trkpt>
      <trkpt lat="44.09985" lon="6.21234">
        <ele>644.22</ele>
        <time>2020-01-13T11:33:37Z</time>
      </trkpt>
      <trkpt lat="44.09986" lon="6.21224">
        <ele>645.18</ele>
        <time>2020-01-13T11:33:51Z</time>
      </trkpt>
      <trkpt lat="44.09984" lon="6.21217">
        <ele>646.62</ele>
        <time>2020-01-13T11:34:14Z</time>
      </trkpt>
      <trkpt lat="44.09984" lon="6.21218">
        <ele>647.1</ele>
        <time>2020-01-13T11:34:20Z</time>
      </trkpt>
      <trkpt lat="44.09989" lon="6.21224">
        <ele>647.59</ele>
        <time>2020-01-13T11:34:26Z</time>
      </trkpt>
      <trkpt lat="44.09997" lon="6.21231">
        <ele>648.55</ele>
        <time>2020-01-13T11:34:35Z</time>
      </trkpt>
      <trkpt lat="44.1" lon="6.21234">
        <ele>649.03</ele>
        <time>2020-01-13T11:34:37Z</time>
      </trkpt>
      <trkpt lat="44.10002" lon="6.21236">
        <ele>649.03</ele>
        <time>2020-01-13T11:34:39Z</time>
      </trkpt>
      <trkpt lat="44.10003" lon="6.21237">
        <ele>648.55</ele>
        <time>2020-01-13T11:34:40Z</time>
      </trkpt>
      <trkpt lat="44.1001" lon="6.21239">
        <ele>649.99</ele>
        <time>2020-01-13T11:34:49Z</time>
      </trkpt>
      <trkpt lat="44.10014" lon="6.21236">
        <ele>649.99</ele>
        <time>2020-01-13T11:35:00Z</time>
      </trkpt>
      <trkpt lat="44.10019" lon="6.21235">
        <ele>650.47</ele>
        <time>2020-01-13T11:35:10Z</time>
      </trkpt>
      <trkpt lat="44.10021" lon="6.21238">
        <ele>652.87</ele>
        <time>2020-01-13T11:35:23Z</time>
      </trkpt>
      <trkpt lat="44.10023" lon="6.21238">
        <ele>656.24</ele>
        <time>2020-01-13T11:35:32Z</time>
      </trkpt>
      <trkpt lat="44.10026" lon="6.21235">
        <ele>656.72</ele>
        <time>2020-01-13T11:35:36Z</time>
      </trkpt>
      <trkpt lat="44.1003" lon="6.21233">
        <ele>659.12</ele>
        <time>2020-01-13T11:35:47Z</time>
      </trkpt>
      <trkpt lat="44.10035" lon="6.21234">
        <ele>662.01</ele>
        <time>2020-01-13T11:35:57Z</time>
      </trkpt>
      <trkpt lat="44.10036" lon="6.21238">
        <ele>662.97</ele>
        <time>2020-01-13T11:36:09Z</time>
      </trkpt>
      <trkpt lat="44.10037" lon="6.2123">
        <ele>663.93</ele>
        <time>2020-01-13T11:36:32Z</time>
      </trkpt>
      <trkpt lat="44.10042" lon="6.21226">
        <ele>665.37</ele>
        <time>2020-01-13T11:36:42Z</time>
      </trkpt>
      <trkpt lat="44.10046" lon="6.21222">
        <ele>668.25</ele>
        <time>2020-01-13T11:36:54Z</time>
      </trkpt>
      <trkpt lat="44.10046" lon="6.21223">
        <ele>670.66</ele>
        <time>2020-01-13T11:36:59Z</time>
      </trkpt>
      <trkpt lat="44.10048" lon="6.21223">
        <ele>670.18</ele>
        <time>2020-01-13T11:37:01Z</time>
      </trkpt>
      <trkpt lat="44.10049" lon="6.21223">
        <ele>670.18</ele>
        <time>2020-01-13T11:37:03Z</time>
      </trkpt>
      <trkpt lat="44.10051" lon="6.21227">
        <ele>672.1</ele>
        <time>2020-01-13T11:37:19Z</time>
      </trkpt>
      <trkpt lat="44.10055" lon="6.21226">
        <ele>673.54</ele>
        <time>2020-01-13T11:37:30Z</time>
      </trkpt>
      <trkpt lat="44.10059" lon="6.21224">
        <ele>676.42</ele>
        <time>2020-01-13T11:37:40Z</time>
      </trkpt>
      <trkpt lat="44.10064" lon="6.21217">
        <ele>678.35</ele>
        <time>2020-01-13T11:37:53Z</time>
      </trkpt>
      <trkpt lat="44.10069" lon="6.21212">
        <ele>679.31</ele>
        <time>2020-01-13T11:38:17Z</time>
      </trkpt>
      <trkpt lat="44.10072" lon="6.21209">
        <ele>681.71</ele>
        <time>2020-01-13T11:38:24Z</time>
      </trkpt>
      <trkpt lat="44.10075" lon="6.21208">
        <ele>683.15</ele>
        <time>2020-01-13T11:38:32Z</time>
      </trkpt>
      <trkpt lat="44.10076" lon="6.21207">
        <ele>684.6</ele>
        <time>2020-01-13T11:38:34Z</time>
      </trkpt>
      <trkpt lat="44.10076" lon="6.21206">
        <ele>685.08</ele>
        <time>2020-01-13T11:38:46Z</time>
      </trkpt>
      <trkpt lat="44.10078" lon="6.21201">
        <ele>686.04</ele>
        <time>2020-01-13T11:39:17Z</time>
      </trkpt>
      <trkpt lat="44.10079" lon="6.21201">
        <ele>687.48</ele>
        <time>2020-01-13T11:39:40Z</time>
      </trkpt>
      <trkpt lat="44.10088" lon="6.21196">
        <ele>687.96</ele>
        <time>2020-01-13T11:39:49Z</time>
      </trkpt>
      <trkpt lat="44.10088" lon="6.21196">
        <ele>688.44</ele>
        <time>2020-01-13T11:40:10Z</time>
      </trkpt>
      <trkpt lat="44.10087" lon="6.21189">
        <ele>689.88</ele>
        <time>2020-01-13T11:40:48Z</time>
      </trkpt>
      <trkpt lat="44.10092" lon="6.21191">
        <ele>691.33</ele>
        <time>2020-01-13T11:41:12Z</time>
      </trkpt>
      <trkpt lat="44.10096" lon="6.21188">
        <ele>691.81</ele>
        <time>2020-01-13T11:41:41Z</time>
      </trkpt>
      <trkpt lat="44.10091" lon="6.21197">
        <ele>693.73</ele>
        <time>2020-01-13T11:42:07Z</time>
      </trkpt>
      <trkpt lat="44.10094" lon="6.21193">
        <ele>694.69</ele>
        <time>2020-01-13T11:42:11Z</time>
      </trkpt>
      <trkpt lat="44.10097" lon="6.21188">
        <ele>695.65</ele>
        <time>2020-01-13T11:42:16Z</time>
      </trkpt>
      <trkpt lat="44.10098" lon="6.21187">
        <ele>695.65</ele>
        <time>2020-01-13T11:42:17Z</time>
      </trkpt>
      <trkpt lat="44.10102" lon="6.21182">
        <ele>697.09</ele>
        <time>2020-01-13T11:42:24Z</time>
      </trkpt>
      <trkpt lat="44.10104" lon="6.21179">
        <ele>697.57</ele>
        <time>2020-01-13T11:42:27Z</time>
      </trkpt>
      <trkpt lat="44.10105" lon="6.21178">
        <ele>698.05</ele>
        <time>2020-01-13T11:42:28Z</time>
      </trkpt>
      <trkpt lat="44.10109" lon="6.21168">
        <ele>699.98</ele>
        <time>2020-01-13T11:42:38Z</time>
      </trkpt>
      <trkpt lat="44.1011" lon="6.21166">
        <ele>699.98</ele>
        <time>2020-01-13T11:42:40Z</time>
      </trkpt>
      <trkpt lat="44.10115" lon="6.21161">
        <ele>702.38</ele>
        <time>2020-01-13T11:42:50Z</time>
      </trkpt>
      <trkpt lat="44.10116" lon="6.21161">
        <ele>702.38</ele>
        <time>2020-01-13T11:42:51Z</time>
      </trkpt>
      <trkpt lat="44.10123" lon="6.2116">
        <ele>704.78</ele>
        <time>2020-01-13T11:43:01Z</time>
      </trkpt>
      <trkpt lat="44.10128" lon="6.21158">
        <ele>706.71</ele>
        <time>2020-01-13T11:43:30Z</time>
      </trkpt>
      <trkpt lat="44.10132" lon="6.21153">
        <ele>707.67</ele>
        <time>2020-01-13T11:43:59Z</time>
      </trkpt>
      <trkpt lat="44.10131" lon="6.21152">
        <ele>707.67</ele>
        <time>2020-01-13T11:44:09Z</time>
      </trkpt>
      <trkpt lat="44.10132" lon="6.21154">
        <ele>710.07</ele>
        <time>2020-01-13T11:44:20Z</time>
      </trkpt>
      <trkpt lat="44.10139" lon="6.21152">
        <ele>712.47</ele>
        <time>2020-01-13T11:44:30Z</time>
      </trkpt>
      <trkpt lat="44.10142" lon="6.2115">
        <ele>714.88</ele>
        <time>2020-01-13T11:44:37Z</time>
      </trkpt>
      <trkpt lat="44.10141" lon="6.21147">
        <ele>715.84</ele>
        <time>2020-01-13T11:44:58Z</time>
      </trkpt>
      <trkpt lat="44.10143" lon="6.2115">
        <ele>718.24</ele>
        <time>2020-01-13T11:45:15Z</time>
      </trkpt>
      <trkpt lat="44.1015" lon="6.21151">
        <ele>720.16</ele>
        <time>2020-01-13T11:45:25Z</time>
      </trkpt>
      <trkpt lat="44.10156" lon="6.21151">
        <ele>721.61</ele>
        <time>2020-01-13T11:45:34Z</time>
      </trkpt>
      <trkpt lat="44.10161" lon="6.21152">
        <ele>723.05</ele>
        <time>2020-01-13T11:45:44Z</time>
      </trkpt>
      <trkpt lat="44.10165" lon="6.21155">
        <ele>725.45</ele>
        <time>2020-01-13T11:45:54Z</time>
      </trkpt>
      <trkpt lat="44.10165" lon="6.21158">
        <ele>727.37</ele>
        <time>2020-01-13T11:46:12Z</time>
      </trkpt>
      <trkpt lat="44.1017" lon="6.2116">
        <ele>728.34</ele>
        <time>2020-01-13T11:46:33Z</time>
      </trkpt>
      <trkpt lat="44.10174" lon="6.21166">
        <ele>730.74</ele>
        <time>2020-01-13T11:46:43Z</time>
      </trkpt>
      <trkpt lat="44.10177" lon="6.2117">
        <ele>733.62</ele>
        <time>2020-01-13T11:46:55Z</time>
      </trkpt>
      <trkpt lat="44.10178" lon="6.21172">
        <ele>734.1</ele>
        <time>2020-01-13T11:47:00Z</time>
      </trkpt>
      <trkpt lat="44.10184" lon="6.21177">
        <ele>735.55</ele>
        <time>2020-01-13T11:47:10Z</time>
      </trkpt>
      <trkpt lat="44.10184" lon="6.21178">
        <ele>737.95</ele>
        <time>2020-01-13T11:47:21Z</time>
      </trkpt>
      <trkpt lat="44.10189" lon="6.21179">
        <ele>738.91</ele>
        <time>2020-01-13T11:47:45Z</time>
      </trkpt>
      <trkpt lat="44.10189" lon="6.21183">
        <ele>739.87</ele>
        <time>2020-01-13T11:48:02Z</time>
      </trkpt>
      <trkpt lat="44.10191" lon="6.21182">
        <ele>740.83</ele>
        <time>2020-01-13T11:48:05Z</time>
      </trkpt>
      <trkpt lat="44.10197" lon="6.2118">
        <ele>741.79</ele>
        <time>2020-01-13T11:48:14Z</time>
      </trkpt>
      <trkpt lat="44.102" lon="6.21181">
        <ele>743.72</ele>
        <time>2020-01-13T11:48:31Z</time>
      </trkpt>
      <trkpt lat="44.10203" lon="6.21181">
        <ele>744.2</ele>
        <time>2020-01-13T11:48:36Z</time>
      </trkpt>
      <trkpt lat="44.10207" lon="6.21179">
        <ele>745.16</ele>
        <time>2020-01-13T11:48:48Z</time>
      </trkpt>
      <trkpt lat="44.10207" lon="6.21177">
        <ele>747.08</ele>
        <time>2020-01-13T11:49:15Z</time>
      </trkpt>
      <trkpt lat="44.10207" lon="6.21181">
        <ele>748.04</ele>
        <time>2020-01-13T11:49:48Z</time>
      </trkpt>
      <trkpt lat="44.10209" lon="6.2117">
        <ele>748.04</ele>
        <time>2020-01-13T11:50:12Z</time>
      </trkpt>
      <trkpt lat="44.10208" lon="6.21165">
        <ele>749</ele>
        <time>2020-01-13T11:50:33Z</time>
      </trkpt>
      <trkpt lat="44.10209" lon="6.21166">
        <ele>749</ele>
        <time>2020-01-13T11:50:34Z</time>
      </trkpt>
      <trkpt lat="44.10213" lon="6.21165">
        <ele>749.49</ele>
        <time>2020-01-13T11:50:38Z</time>
      </trkpt>
      <trkpt lat="44.10214" lon="6.21165">
        <ele>749.97</ele>
        <time>2020-01-13T11:50:39Z</time>
      </trkpt>
      <trkpt lat="44.10218" lon="6.21165">
        <ele>751.41</ele>
        <time>2020-01-13T11:50:45Z</time>
      </trkpt>
      <trkpt lat="44.10222" lon="6.21163">
        <ele>752.37</ele>
        <time>2020-01-13T11:50:51Z</time>
      </trkpt>
      <trkpt lat="44.10223" lon="6.2116">
        <ele>752.85</ele>
        <time>2020-01-13T11:50:54Z</time>
      </trkpt>
      <trkpt lat="44.10225" lon="6.21158">
        <ele>753.33</ele>
        <time>2020-01-13T11:50:57Z</time>
      </trkpt>
      <trkpt lat="44.10229" lon="6.21148">
        <ele>755.25</ele>
        <time>2020-01-13T11:51:07Z</time>
      </trkpt>
      <trkpt lat="44.10231" lon="6.21141">
        <ele>757.18</ele>
        <time>2020-01-13T11:51:14Z</time>
      </trkpt>
      <trkpt lat="44.10233" lon="6.21137">
        <ele>758.62</ele>
        <time>2020-01-13T11:51:23Z</time>
      </trkpt>
      <trkpt lat="44.10236" lon="6.21134">
        <ele>761.02</ele>
        <time>2020-01-13T11:51:33Z</time>
      </trkpt>
      <trkpt lat="44.10243" lon="6.21129">
        <ele>762.46</ele>
        <time>2020-01-13T11:51:43Z</time>
      </trkpt>
      <trkpt lat="44.10245" lon="6.21128">
        <ele>762.46</ele>
        <time>2020-01-13T11:51:46Z</time>
      </trkpt>
      <trkpt lat="44.10251" lon="6.2113">
        <ele>763.42</ele>
        <time>2020-01-13T11:51:55Z</time>
      </trkpt>
      <trkpt lat="44.10257" lon="6.21134">
        <ele>763.42</ele>
        <time>2020-01-13T11:52:04Z</time>
      </trkpt>
      <trkpt lat="44.10259" lon="6.21134">
        <ele>763.9</ele>
        <time>2020-01-13T11:52:07Z</time>
      </trkpt>
      <trkpt lat="44.10266" lon="6.21129">
        <ele>765.35</ele>
        <time>2020-01-13T11:52:18Z</time>
      </trkpt>
      <trkpt lat="44.10268" lon="6.21126">
        <ele>766.31</ele>
        <time>2020-01-13T11:52:25Z</time>
      </trkpt>
      <trkpt lat="44.1027" lon="6.21123">
        <ele>766.79</ele>
        <time>2020-01-13T11:52:30Z</time>
      </trkpt>
      <trkpt lat="44.10273" lon="6.21117">
        <ele>767.75</ele>
        <time>2020-01-13T11:52:39Z</time>
      </trkpt>
      <trkpt lat="44.10277" lon="6.21115">
        <ele>769.67</ele>
        <time>2020-01-13T11:52:48Z</time>
      </trkpt>
      <trkpt lat="44.10278" lon="6.21113">
        <ele>770.15</ele>
        <time>2020-01-13T11:52:52Z</time>
      </trkpt>
      <trkpt lat="44.10278" lon="6.21109">
        <ele>771.6</ele>
        <time>2020-01-13T11:53:07Z</time>
      </trkpt>
      <trkpt lat="44.10281" lon="6.21107">
        <ele>772.08</ele>
        <time>2020-01-13T11:53:23Z</time>
      </trkpt>
      <trkpt lat="44.10288" lon="6.211">
        <ele>773.52</ele>
        <time>2020-01-13T11:53:41Z</time>
      </trkpt>
      <trkpt lat="44.10286" lon="6.21098">
        <ele>773.04</ele>
        <time>2020-01-13T11:53:44Z</time>
      </trkpt>
      <trkpt lat="44.10284" lon="6.21092">
        <ele>774.48</ele>
        <time>2020-01-13T11:53:58Z</time>
      </trkpt>
      <trkpt lat="44.10281" lon="6.21088">
        <ele>774.96</ele>
        <time>2020-01-13T11:54:03Z</time>
      </trkpt>
      <trkpt lat="44.10281" lon="6.21086">
        <ele>774.96</ele>
        <time>2020-01-13T11:54:06Z</time>
      </trkpt>
      <trkpt lat="44.10279" lon="6.21083">
        <ele>775.92</ele>
        <time>2020-01-13T11:54:11Z</time>
      </trkpt>
      <trkpt lat="44.10277" lon="6.21079">
        <ele>776.88</ele>
        <time>2020-01-13T11:54:16Z</time>
      </trkpt>
      <trkpt lat="44.10276" lon="6.21077">
        <ele>777.36</ele>
        <time>2020-01-13T11:54:18Z</time>
      </trkpt>
      <trkpt lat="44.10275" lon="6.2107">
        <ele>777.84</ele>
        <time>2020-01-13T11:54:27Z</time>
      </trkpt>
      <trkpt lat="44.10273" lon="6.21066">
        <ele>779.29</ele>
        <time>2020-01-13T11:54:32Z</time>
      </trkpt>
      <trkpt lat="44.10275" lon="6.21061">
        <ele>780.73</ele>
        <time>2020-01-13T11:54:42Z</time>
      </trkpt>
      <trkpt lat="44.10275" lon="6.21061">
        <ele>780.73</ele>
        <time>2020-01-13T11:54:43Z</time>
      </trkpt>
      <trkpt lat="44.10276" lon="6.21059">
        <ele>782.17</ele>
        <time>2020-01-13T11:54:52Z</time>
      </trkpt>
      <trkpt lat="44.10276" lon="6.21058">
        <ele>783.61</ele>
        <time>2020-01-13T11:55:11Z</time>
      </trkpt>
      <trkpt lat="44.10277" lon="6.21056">
        <ele>783.61</ele>
        <time>2020-01-13T11:55:14Z</time>
      </trkpt>
      <trkpt lat="44.1028" lon="6.21051">
        <ele>784.09</ele>
        <time>2020-01-13T11:55:21Z</time>
      </trkpt>
      <trkpt lat="44.10282" lon="6.21049">
        <ele>784.57</ele>
        <time>2020-01-13T11:55:23Z</time>
      </trkpt>
      <trkpt lat="44.10283" lon="6.21046">
        <ele>785.05</ele>
        <time>2020-01-13T11:55:28Z</time>
      </trkpt>
      <trkpt lat="44.10285" lon="6.2104">
        <ele>786.98</ele>
        <time>2020-01-13T11:55:36Z</time>
      </trkpt>
      <trkpt lat="44.10286" lon="6.21035">
        <ele>787.94</ele>
        <time>2020-01-13T11:55:44Z</time>
      </trkpt>
      <trkpt lat="44.10287" lon="6.21034">
        <ele>788.42</ele>
        <time>2020-01-13T11:56:04Z</time>
      </trkpt>
      <trkpt lat="44.10288" lon="6.21034">
        <ele>788.42</ele>
        <time>2020-01-13T11:56:05Z</time>
      </trkpt>
      <trkpt lat="44.10289" lon="6.21035">
        <ele>790.34</ele>
        <time>2020-01-13T11:56:12Z</time>
      </trkpt>
      <trkpt lat="44.10291" lon="6.21037">
        <ele>790.34</ele>
        <time>2020-01-13T11:56:22Z</time>
      </trkpt>
      <trkpt lat="44.10293" lon="6.2104">
        <ele>790.82</ele>
        <time>2020-01-13T11:56:25Z</time>
      </trkpt>
      <trkpt lat="44.10298" lon="6.21043">
        <ele>790.82</ele>
        <time>2020-01-13T11:56:33Z</time>
      </trkpt>
      <trkpt lat="44.10298" lon="6.21044">
        <ele>791.3</ele>
        <time>2020-01-13T11:56:35Z</time>
      </trkpt>
      <trkpt lat="44.10303" lon="6.21044">
        <ele>792.74</ele>
        <time>2020-01-13T11:56:44Z</time>
      </trkpt>
      <trkpt lat="44.10304" lon="6.21046">
        <ele>793.22</ele>
        <time>2020-01-13T11:57:00Z</time>
      </trkpt>
      <trkpt lat="44.10304" lon="6.21046">
        <ele>793.22</ele>
        <time>2020-01-13T11:57:25Z</time>
      </trkpt>
      <trkpt lat="44.10305" lon="6.21044">
        <ele>794.19</ele>
        <time>2020-01-13T11:57:31Z</time>
      </trkpt>
      <trkpt lat="44.10306" lon="6.21042">
        <ele>793.71</ele>
        <time>2020-01-13T11:57:32Z</time>
      </trkpt>
      <trkpt lat="44.10307" lon="6.21032">
        <ele>795.63</ele>
        <time>2020-01-13T11:57:40Z</time>
      </trkpt>
      <trkpt lat="44.10306" lon="6.21031">
        <ele>795.63</ele>
        <time>2020-01-13T11:57:41Z</time>
      </trkpt>
      <trkpt lat="44.10307" lon="6.21029">
        <ele>796.11</ele>
        <time>2020-01-13T11:57:54Z</time>
      </trkpt>
      <trkpt lat="44.10308" lon="6.21026">
        <ele>796.11</ele>
        <time>2020-01-13T11:57:57Z</time>
      </trkpt>
      <trkpt lat="44.10307" lon="6.21022">
        <ele>797.07</ele>
        <time>2020-01-13T11:58:01Z</time>
      </trkpt>
      <trkpt lat="44.10307" lon="6.21021">
        <ele>797.55</ele>
        <time>2020-01-13T11:58:02Z</time>
      </trkpt>
      <trkpt lat="44.10306" lon="6.21018">
        <ele>798.03</ele>
        <time>2020-01-13T11:58:05Z</time>
      </trkpt>
      <trkpt lat="44.10307" lon="6.21015">
        <ele>798.03</ele>
        <time>2020-01-13T11:58:07Z</time>
      </trkpt>
      <trkpt lat="44.10307" lon="6.21013">
        <ele>798.99</ele>
        <time>2020-01-13T11:58:09Z</time>
      </trkpt>
      <trkpt lat="44.10307" lon="6.2101">
        <ele>798.51</ele>
        <time>2020-01-13T11:58:12Z</time>
      </trkpt>
      <trkpt lat="44.10305" lon="6.21008">
        <ele>798.99</ele>
        <time>2020-01-13T11:58:23Z</time>
      </trkpt>
      <trkpt lat="44.10304" lon="6.2101">
        <ele>799.47</ele>
        <time>2020-01-13T11:58:43Z</time>
      </trkpt>
      <trkpt lat="44.10304" lon="6.21009">
        <ele>800.44</ele>
        <time>2020-01-13T11:59:18Z</time>
      </trkpt>
      <trkpt lat="44.10304" lon="6.21008">
        <ele>800.92</ele>
        <time>2020-01-13T11:59:19Z</time>
      </trkpt>
      <trkpt lat="44.10304" lon="6.21006">
        <ele>800.92</ele>
        <time>2020-01-13T11:59:22Z</time>
      </trkpt>
      <trkpt lat="44.10304" lon="6.21003">
        <ele>801.4</ele>
        <time>2020-01-13T11:59:25Z</time>
      </trkpt>
      <trkpt lat="44.10303" lon="6.20996">
        <ele>803.32</ele>
        <time>2020-01-13T11:59:34Z</time>
      </trkpt>
      <trkpt lat="44.10304" lon="6.20994">
        <ele>803.32</ele>
        <time>2020-01-13T11:59:37Z</time>
      </trkpt>
      <trkpt lat="44.10307" lon="6.20987">
        <ele>804.76</ele>
        <time>2020-01-13T11:59:45Z</time>
      </trkpt>
      <trkpt lat="44.10307" lon="6.20985">
        <ele>804.28</ele>
        <time>2020-01-13T11:59:47Z</time>
      </trkpt>
      <trkpt lat="44.1031" lon="6.20979">
        <ele>805.24</ele>
        <time>2020-01-13T11:59:54Z</time>
      </trkpt>
      <trkpt lat="44.10311" lon="6.20976">
        <ele>806.2</ele>
        <time>2020-01-13T11:59:58Z</time>
      </trkpt>
      <trkpt lat="44.10311" lon="6.2097">
        <ele>807.64</ele>
        <time>2020-01-13T12:00:11Z</time>
      </trkpt>
      <trkpt lat="44.10311" lon="6.20969">
        <ele>809.09</ele>
        <time>2020-01-13T12:00:41Z</time>
      </trkpt>
      <trkpt lat="44.10312" lon="6.20968">
        <ele>808.61</ele>
        <time>2020-01-13T12:00:43Z</time>
      </trkpt>
      <trkpt lat="44.10317" lon="6.20967">
        <ele>810.53</ele>
        <time>2020-01-13T12:00:52Z</time>
      </trkpt>
      <trkpt lat="44.10321" lon="6.20968">
        <ele>811.97</ele>
        <time>2020-01-13T12:01:01Z</time>
      </trkpt>
      <trkpt lat="44.10324" lon="6.20967">
        <ele>812.45</ele>
        <time>2020-01-13T12:01:06Z</time>
      </trkpt>
      <trkpt lat="44.1033" lon="6.20961">
        <ele>813.41</ele>
        <time>2020-01-13T12:01:16Z</time>
      </trkpt>
      <trkpt lat="44.10332" lon="6.2096">
        <ele>814.37</ele>
        <time>2020-01-13T12:01:18Z</time>
      </trkpt>
      <trkpt lat="44.10335" lon="6.20957">
        <ele>815.82</ele>
        <time>2020-01-13T12:01:24Z</time>
      </trkpt>
      <trkpt lat="44.10341" lon="6.20955">
        <ele>815.34</ele>
        <time>2020-01-13T12:01:42Z</time>
      </trkpt>
      <trkpt lat="44.10342" lon="6.20953">
        <ele>816.78</ele>
        <time>2020-01-13T12:01:47Z</time>
      </trkpt>
      <trkpt lat="44.10345" lon="6.2095">
        <ele>817.26</ele>
        <time>2020-01-13T12:01:55Z</time>
      </trkpt>
      <trkpt lat="44.1035" lon="6.20948">
        <ele>819.18</ele>
        <time>2020-01-13T12:02:05Z</time>
      </trkpt>
      <trkpt lat="44.10352" lon="6.20947">
        <ele>819.18</ele>
        <time>2020-01-13T12:02:08Z</time>
      </trkpt>
      <trkpt lat="44.10358" lon="6.20942">
        <ele>821.1</ele>
        <time>2020-01-13T12:02:18Z</time>
      </trkpt>
      <trkpt lat="44.10363" lon="6.20939">
        <ele>822.55</ele>
        <time>2020-01-13T12:02:29Z</time>
      </trkpt>
      <trkpt lat="44.10363" lon="6.20931">
        <ele>823.03</ele>
        <time>2020-01-13T12:02:46Z</time>
      </trkpt>
      <trkpt lat="44.10366" lon="6.20939">
        <ele>824.95</ele>
        <time>2020-01-13T12:03:12Z</time>
      </trkpt>
      <trkpt lat="44.10369" lon="6.20936">
        <ele>824.95</ele>
        <time>2020-01-13T12:03:30Z</time>
      </trkpt>
      <trkpt lat="44.10373" lon="6.20934">
        <ele>825.91</ele>
        <time>2020-01-13T12:03:52Z</time>
      </trkpt>
      <trkpt lat="44.10375" lon="6.20929">
        <ele>825.43</ele>
        <time>2020-01-13T12:04:00Z</time>
      </trkpt>
      <trkpt lat="44.1038" lon="6.20922">
        <ele>826.87</ele>
        <time>2020-01-13T12:04:09Z</time>
      </trkpt>
      <trkpt lat="44.10381" lon="6.20917">
        <ele>828.31</ele>
        <time>2020-01-13T12:04:16Z</time>
      </trkpt>
      <trkpt lat="44.10386" lon="6.20909">
        <ele>830.24</ele>
        <time>2020-01-13T12:04:26Z</time>
      </trkpt>
      <trkpt lat="44.10391" lon="6.20903">
        <ele>832.16</ele>
        <time>2020-01-13T12:04:37Z</time>
      </trkpt>
      <trkpt lat="44.10395" lon="6.209">
        <ele>833.6</ele>
        <time>2020-01-13T12:04:45Z</time>
      </trkpt>
      <trkpt lat="44.10396" lon="6.20897">
        <ele>834.08</ele>
        <time>2020-01-13T12:04:52Z</time>
      </trkpt>
      <trkpt lat="44.104" lon="6.20886">
        <ele>835.52</ele>
        <time>2020-01-13T12:05:00Z</time>
      </trkpt>
      <trkpt lat="44.104" lon="6.20884">
        <ele>835.52</ele>
        <time>2020-01-13T12:05:17Z</time>
      </trkpt>
      <trkpt lat="44.10401" lon="6.20882">
        <ele>835.52</ele>
        <time>2020-01-13T12:05:19Z</time>
      </trkpt>
      <trkpt lat="44.10402" lon="6.20881">
        <ele>835.04</ele>
        <time>2020-01-13T12:05:20Z</time>
      </trkpt>
      <trkpt lat="44.10405" lon="6.20872">
        <ele>836.48</ele>
        <time>2020-01-13T12:05:28Z</time>
      </trkpt>
      <trkpt lat="44.10405" lon="6.2087">
        <ele>836.96</ele>
        <time>2020-01-13T12:05:29Z</time>
      </trkpt>
      <trkpt lat="44.10405" lon="6.20869">
        <ele>836.96</ele>
        <time>2020-01-13T12:05:30Z</time>
      </trkpt>
      <trkpt lat="44.10405" lon="6.20865">
        <ele>837.93</ele>
        <time>2020-01-13T12:05:33Z</time>
      </trkpt>
      <trkpt lat="44.10405" lon="6.20864">
        <ele>837.45</ele>
        <time>2020-01-13T12:05:34Z</time>
      </trkpt>
      <trkpt lat="44.10405" lon="6.20858">
        <ele>837.93</ele>
        <time>2020-01-13T12:05:47Z</time>
      </trkpt>
      <trkpt lat="44.10405" lon="6.20856">
        <ele>837.45</ele>
        <time>2020-01-13T12:05:48Z</time>
      </trkpt>
      <trkpt lat="44.10405" lon="6.20843">
        <ele>838.41</ele>
        <time>2020-01-13T12:05:58Z</time>
      </trkpt>
      <trkpt lat="44.10404" lon="6.2083">
        <ele>839.85</ele>
        <time>2020-01-13T12:06:08Z</time>
      </trkpt>
      <trkpt lat="44.10403" lon="6.20825">
        <ele>839.85</ele>
        <time>2020-01-13T12:06:11Z</time>
      </trkpt>
      <trkpt lat="44.10403" lon="6.20824">
        <ele>839.85</ele>
        <time>2020-01-13T12:06:12Z</time>
      </trkpt>
      <trkpt lat="44.10402" lon="6.20817">
        <ele>840.33</ele>
        <time>2020-01-13T12:06:17Z</time>
      </trkpt>
      <trkpt lat="44.10403" lon="6.20815">
        <ele>840.33</ele>
        <time>2020-01-13T12:06:18Z</time>
      </trkpt>
      <trkpt lat="44.10403" lon="6.20811">
        <ele>840.81</ele>
        <time>2020-01-13T12:06:21Z</time>
      </trkpt>
      <trkpt lat="44.10402" lon="6.20807">
        <ele>840.81</ele>
        <time>2020-01-13T12:06:24Z</time>
      </trkpt>
      <trkpt lat="44.10402" lon="6.20805">
        <ele>841.77</ele>
        <time>2020-01-13T12:06:25Z</time>
      </trkpt>
      <trkpt lat="44.10402" lon="6.20795">
        <ele>841.77</ele>
        <time>2020-01-13T12:06:34Z</time>
      </trkpt>
      <trkpt lat="44.10402" lon="6.20793">
        <ele>841.77</ele>
        <time>2020-01-13T12:06:35Z</time>
      </trkpt>
      <trkpt lat="44.10402" lon="6.2079">
        <ele>842.73</ele>
        <time>2020-01-13T12:06:38Z</time>
      </trkpt>
      <trkpt lat="44.10402" lon="6.20788">
        <ele>842.25</ele>
        <time>2020-01-13T12:06:39Z</time>
      </trkpt>
      <trkpt lat="44.10401" lon="6.20775">
        <ele>842.73</ele>
        <time>2020-01-13T12:06:48Z</time>
      </trkpt>
      <trkpt lat="44.10401" lon="6.20774">
        <ele>842.73</ele>
        <time>2020-01-13T12:06:49Z</time>
      </trkpt>
      <trkpt lat="44.10399" lon="6.20763">
        <ele>843.69</ele>
        <time>2020-01-13T12:06:58Z</time>
      </trkpt>
      <trkpt lat="44.10399" lon="6.20758">
        <ele>843.69</ele>
        <time>2020-01-13T12:07:02Z</time>
      </trkpt>
      <trkpt lat="44.10398" lon="6.20756">
        <ele>844.66</ele>
        <time>2020-01-13T12:07:03Z</time>
      </trkpt>
      <trkpt lat="44.10398" lon="6.20747">
        <ele>844.66</ele>
        <time>2020-01-13T12:07:11Z</time>
      </trkpt>
      <trkpt lat="44.10397" lon="6.20737">
        <ele>846.1</ele>
        <time>2020-01-13T12:07:19Z</time>
      </trkpt>
      <trkpt lat="44.10396" lon="6.20732">
        <ele>846.1</ele>
        <time>2020-01-13T12:07:23Z</time>
      </trkpt>
      <trkpt lat="44.10393" lon="6.20723">
        <ele>847.06</ele>
        <time>2020-01-13T12:07:31Z</time>
      </trkpt>
      <trkpt lat="44.10391" lon="6.20712">
        <ele>847.54</ele>
        <time>2020-01-13T12:07:40Z</time>
      </trkpt>
      <trkpt lat="44.10391" lon="6.2071">
        <ele>848.02</ele>
        <time>2020-01-13T12:07:53Z</time>
      </trkpt>
      <trkpt lat="44.1039" lon="6.2071">
        <ele>848.5</ele>
        <time>2020-01-13T12:08:22Z</time>
      </trkpt>
      <trkpt lat="44.1039" lon="6.20708">
        <ele>848.98</ele>
        <time>2020-01-13T12:08:23Z</time>
      </trkpt>
      <trkpt lat="44.1039" lon="6.20704">
        <ele>848.98</ele>
        <time>2020-01-13T12:08:26Z</time>
      </trkpt>
      <trkpt lat="44.1039" lon="6.20696">
        <ele>849.46</ele>
        <time>2020-01-13T12:08:33Z</time>
      </trkpt>
      <trkpt lat="44.1039" lon="6.20691">
        <ele>849.94</ele>
        <time>2020-01-13T12:08:37Z</time>
      </trkpt>
      <trkpt lat="44.1039" lon="6.2068">
        <ele>850.42</ele>
        <time>2020-01-13T12:08:46Z</time>
      </trkpt>
      <trkpt lat="44.10389" lon="6.20666">
        <ele>851.87</ele>
        <time>2020-01-13T12:08:57Z</time>
      </trkpt>
      <trkpt lat="44.10388" lon="6.20656">
        <ele>852.35</ele>
        <time>2020-01-13T12:09:13Z</time>
      </trkpt>
      <trkpt lat="44.10387" lon="6.20655">
        <ele>852.35</ele>
        <time>2020-01-13T12:09:14Z</time>
      </trkpt>
      <trkpt lat="44.10386" lon="6.20654">
        <ele>852.35</ele>
        <time>2020-01-13T12:09:15Z</time>
      </trkpt>
      <trkpt lat="44.10386" lon="6.20651">
        <ele>852.83</ele>
        <time>2020-01-13T12:09:18Z</time>
      </trkpt>
      <trkpt lat="44.10385" lon="6.20647">
        <ele>853.31</ele>
        <time>2020-01-13T12:09:22Z</time>
      </trkpt>
      <trkpt lat="44.10384" lon="6.20645">
        <ele>853.79</ele>
        <time>2020-01-13T12:09:25Z</time>
      </trkpt>
      <trkpt lat="44.1038" lon="6.20639">
        <ele>854.27</ele>
        <time>2020-01-13T12:09:33Z</time>
      </trkpt>
      <trkpt lat="44.10373" lon="6.20633">
        <ele>854.75</ele>
        <time>2020-01-13T12:09:44Z</time>
      </trkpt>
      <trkpt lat="44.10373" lon="6.20623">
        <ele>855.71</ele>
        <time>2020-01-13T12:10:02Z</time>
      </trkpt>
      <trkpt lat="44.1037" lon="6.2062">
        <ele>855.71</ele>
        <time>2020-01-13T12:10:06Z</time>
      </trkpt>
      <trkpt lat="44.10368" lon="6.20619">
        <ele>855.71</ele>
        <time>2020-01-13T12:10:10Z</time>
      </trkpt>
      <trkpt lat="44.10366" lon="6.20615">
        <ele>856.19</ele>
        <time>2020-01-13T12:10:14Z</time>
      </trkpt>
      <trkpt lat="44.10364" lon="6.20612">
        <ele>856.67</ele>
        <time>2020-01-13T12:10:28Z</time>
      </trkpt>
      <trkpt lat="44.10364" lon="6.2061">
        <ele>857.15</ele>
        <time>2020-01-13T12:10:31Z</time>
      </trkpt>
      <trkpt lat="44.10363" lon="6.20606">
        <ele>857.63</ele>
        <time>2020-01-13T12:10:34Z</time>
      </trkpt>
      <trkpt lat="44.10363" lon="6.20605">
        <ele>857.63</ele>
        <time>2020-01-13T12:10:35Z</time>
      </trkpt>
      <trkpt lat="44.10362" lon="6.20603">
        <ele>857.63</ele>
        <time>2020-01-13T12:10:36Z</time>
      </trkpt>
      <trkpt lat="44.10361" lon="6.206">
        <ele>858.59</ele>
        <time>2020-01-13T12:10:39Z</time>
      </trkpt>
      <trkpt lat="44.10358" lon="6.20596">
        <ele>858.59</ele>
        <time>2020-01-13T12:10:48Z</time>
      </trkpt>
      <trkpt lat="44.10356" lon="6.20593">
        <ele>859.08</ele>
        <time>2020-01-13T12:11:02Z</time>
      </trkpt>
      <trkpt lat="44.10355" lon="6.20588">
        <ele>859.08</ele>
        <time>2020-01-13T12:11:06Z</time>
      </trkpt>
      <trkpt lat="44.10352" lon="6.2058">
        <ele>860.04</ele>
        <time>2020-01-13T12:11:14Z</time>
      </trkpt>
      <trkpt lat="44.1035" lon="6.20579">
        <ele>860.52</ele>
        <time>2020-01-13T12:11:16Z</time>
      </trkpt>
      <trkpt lat="44.10346" lon="6.20574">
        <ele>862.44</ele>
        <time>2020-01-13T12:11:23Z</time>
      </trkpt>
      <trkpt lat="44.10345" lon="6.20571">
        <ele>862.44</ele>
        <time>2020-01-13T12:11:26Z</time>
      </trkpt>
      <trkpt lat="44.10344" lon="6.20566">
        <ele>862.44</ele>
        <time>2020-01-13T12:11:30Z</time>
      </trkpt>
      <trkpt lat="44.10343" lon="6.20557">
        <ele>862.92</ele>
        <time>2020-01-13T12:11:38Z</time>
      </trkpt>
      <trkpt lat="44.10343" lon="6.20553">
        <ele>863.4</ele>
        <time>2020-01-13T12:11:41Z</time>
      </trkpt>
      <trkpt lat="44.10343" lon="6.20551">
        <ele>863.4</ele>
        <time>2020-01-13T12:11:42Z</time>
      </trkpt>
      <trkpt lat="44.10342" lon="6.20546">
        <ele>863.4</ele>
        <time>2020-01-13T12:11:47Z</time>
      </trkpt>
      <trkpt lat="44.10341" lon="6.20542">
        <ele>863.88</ele>
        <time>2020-01-13T12:12:00Z</time>
      </trkpt>
      <trkpt lat="44.10336" lon="6.20544">
        <ele>863.4</ele>
        <time>2020-01-13T12:12:14Z</time>
      </trkpt>
      <trkpt lat="44.10333" lon="6.20548">
        <ele>863.88</ele>
        <time>2020-01-13T12:12:58Z</time>
      </trkpt>
      <trkpt lat="44.10334" lon="6.20546">
        <ele>864.84</ele>
        <time>2020-01-13T12:13:24Z</time>
      </trkpt>
      <trkpt lat="44.10339" lon="6.20536">
        <ele>865.8</ele>
        <time>2020-01-13T12:13:33Z</time>
      </trkpt>
      <trkpt lat="44.10342" lon="6.2053">
        <ele>866.77</ele>
        <time>2020-01-13T12:13:45Z</time>
      </trkpt>
      <trkpt lat="44.10346" lon="6.20526">
        <ele>867.25</ele>
        <time>2020-01-13T12:14:04Z</time>
      </trkpt>
      <trkpt lat="44.10348" lon="6.20525">
        <ele>867.73</ele>
        <time>2020-01-13T12:14:07Z</time>
      </trkpt>
      <trkpt lat="44.1035" lon="6.20512">
        <ele>867.73</ele>
        <time>2020-01-13T12:14:21Z</time>
      </trkpt>
      <trkpt lat="44.10347" lon="6.20508">
        <ele>867.73</ele>
        <time>2020-01-13T12:14:41Z</time>
      </trkpt>
      <trkpt lat="44.1035" lon="6.20508">
        <ele>868.21</ele>
        <time>2020-01-13T12:14:45Z</time>
      </trkpt>
      <trkpt lat="44.10352" lon="6.20506">
        <ele>868.69</ele>
        <time>2020-01-13T12:14:49Z</time>
      </trkpt>
      <trkpt lat="44.10357" lon="6.20495">
        <ele>870.13</ele>
        <time>2020-01-13T12:14:59Z</time>
      </trkpt>
      <trkpt lat="44.1036" lon="6.20485">
        <ele>870.61</ele>
        <time>2020-01-13T12:15:10Z</time>
      </trkpt>
      <trkpt lat="44.10363" lon="6.20474">
        <ele>871.09</ele>
        <time>2020-01-13T12:15:18Z</time>
      </trkpt>
      <trkpt lat="44.10365" lon="6.20464">
        <ele>871.57</ele>
        <time>2020-01-13T12:15:27Z</time>
      </trkpt>
      <trkpt lat="44.10365" lon="6.20462">
        <ele>872.05</ele>
        <time>2020-01-13T12:15:46Z</time>
      </trkpt>
      <trkpt lat="44.10367" lon="6.20459">
        <ele>871.57</ele>
        <time>2020-01-13T12:15:50Z</time>
      </trkpt>
      <trkpt lat="44.10367" lon="6.20458">
        <ele>872.53</ele>
        <time>2020-01-13T12:15:51Z</time>
      </trkpt>
      <trkpt lat="44.10369" lon="6.20455">
        <ele>873.01</ele>
        <time>2020-01-13T12:15:54Z</time>
      </trkpt>
      <trkpt lat="44.10369" lon="6.20454">
        <ele>873.5</ele>
        <time>2020-01-13T12:15:55Z</time>
      </trkpt>
      <trkpt lat="44.10372" lon="6.20443">
        <ele>873.98</ele>
        <time>2020-01-13T12:16:05Z</time>
      </trkpt>
      <trkpt lat="44.10374" lon="6.20435">
        <ele>874.46</ele>
        <time>2020-01-13T12:16:17Z</time>
      </trkpt>
      <trkpt lat="44.10373" lon="6.20434">
        <ele>873.98</ele>
        <time>2020-01-13T12:16:29Z</time>
      </trkpt>
      <trkpt lat="44.10374" lon="6.20431">
        <ele>874.46</ele>
        <time>2020-01-13T12:16:33Z</time>
      </trkpt>
      <trkpt lat="44.10376" lon="6.20422">
        <ele>875.9</ele>
        <time>2020-01-13T12:16:42Z</time>
      </trkpt>
      <trkpt lat="44.10377" lon="6.20417">
        <ele>876.86</ele>
        <time>2020-01-13T12:16:45Z</time>
      </trkpt>
      <trkpt lat="44.10379" lon="6.20404">
        <ele>877.82</ele>
        <time>2020-01-13T12:16:55Z</time>
      </trkpt>
      <trkpt lat="44.10376" lon="6.20401">
        <ele>877.82</ele>
        <time>2020-01-13T12:17:11Z</time>
      </trkpt>
      <trkpt lat="44.1038" lon="6.20398">
        <ele>877.82</ele>
        <time>2020-01-13T12:17:19Z</time>
      </trkpt>
      <trkpt lat="44.1038" lon="6.20394">
        <ele>877.82</ele>
        <time>2020-01-13T12:17:23Z</time>
      </trkpt>
      <trkpt lat="44.1038" lon="6.20392">
        <ele>877.82</ele>
        <time>2020-01-13T12:17:24Z</time>
      </trkpt>
      <trkpt lat="44.1038" lon="6.20389">
        <ele>878.3</ele>
        <time>2020-01-13T12:17:27Z</time>
      </trkpt>
      <trkpt lat="44.10381" lon="6.20388">
        <ele>878.3</ele>
        <time>2020-01-13T12:17:28Z</time>
      </trkpt>
      <trkpt lat="44.10383" lon="6.20382">
        <ele>879.26</ele>
        <time>2020-01-13T12:17:34Z</time>
      </trkpt>
      <trkpt lat="44.10386" lon="6.2038">
        <ele>879.26</ele>
        <time>2020-01-13T12:17:44Z</time>
      </trkpt>
      <trkpt lat="44.10388" lon="6.20381">
        <ele>879.74</ele>
        <time>2020-01-13T12:17:47Z</time>
      </trkpt>
      <trkpt lat="44.1039" lon="6.20386">
        <ele>880.22</ele>
        <time>2020-01-13T12:17:55Z</time>
      </trkpt>
      <trkpt lat="44.10389" lon="6.20388">
        <ele>881.19</ele>
        <time>2020-01-13T12:18:16Z</time>
      </trkpt>
      <trkpt lat="44.10388" lon="6.20392">
        <ele>881.67</ele>
        <time>2020-01-13T12:18:24Z</time>
      </trkpt>
      <trkpt lat="44.1039" lon="6.20395">
        <ele>881.67</ele>
        <time>2020-01-13T12:18:28Z</time>
      </trkpt>
      <trkpt lat="44.10392" lon="6.20403">
        <ele>883.11</ele>
        <time>2020-01-13T12:18:35Z</time>
      </trkpt>
      <trkpt lat="44.10395" lon="6.20417">
        <ele>883.11</ele>
        <time>2020-01-13T12:18:46Z</time>
      </trkpt>
      <trkpt lat="44.10396" lon="6.20426">
        <ele>884.07</ele>
        <time>2020-01-13T12:18:53Z</time>
      </trkpt>
      <trkpt lat="44.10396" lon="6.20437">
        <ele>885.03</ele>
        <time>2020-01-13T12:19:03Z</time>
      </trkpt>
      <trkpt lat="44.10396" lon="6.20443">
        <ele>885.51</ele>
        <time>2020-01-13T12:19:31Z</time>
      </trkpt>
      <trkpt lat="44.10397" lon="6.20454">
        <ele>885.99</ele>
        <time>2020-01-13T12:19:42Z</time>
      </trkpt>
      <trkpt lat="44.10396" lon="6.20464">
        <ele>886.47</ele>
        <time>2020-01-13T12:19:49Z</time>
      </trkpt>
      <trkpt lat="44.10396" lon="6.20466">
        <ele>887.43</ele>
        <time>2020-01-13T12:19:50Z</time>
      </trkpt>
      <trkpt lat="44.10396" lon="6.2047">
        <ele>887.43</ele>
        <time>2020-01-13T12:19:53Z</time>
      </trkpt>
      <trkpt lat="44.10396" lon="6.20472">
        <ele>887.43</ele>
        <time>2020-01-13T12:19:54Z</time>
      </trkpt>
      <trkpt lat="44.10396" lon="6.20483">
        <ele>887.91</ele>
        <time>2020-01-13T12:20:04Z</time>
      </trkpt>
      <trkpt lat="44.10396" lon="6.20484">
        <ele>887.91</ele>
        <time>2020-01-13T12:20:05Z</time>
      </trkpt>
      <trkpt lat="44.10396" lon="6.20486">
        <ele>888.4</ele>
        <time>2020-01-13T12:20:06Z</time>
      </trkpt>
      <trkpt lat="44.10399" lon="6.20501">
        <ele>889.84</ele>
        <time>2020-01-13T12:20:17Z</time>
      </trkpt>
      <trkpt lat="44.104" lon="6.20501">
        <ele>889.84</ele>
        <time>2020-01-13T12:20:26Z</time>
      </trkpt>
      <trkpt lat="44.10401" lon="6.20506">
        <ele>889.84</ele>
        <time>2020-01-13T12:20:30Z</time>
      </trkpt>
      <trkpt lat="44.10403" lon="6.20517">
        <ele>890.8</ele>
        <time>2020-01-13T12:20:40Z</time>
      </trkpt>
      <trkpt lat="44.10406" lon="6.20522">
        <ele>891.76</ele>
        <time>2020-01-13T12:20:51Z</time>
      </trkpt>
      <trkpt lat="44.10405" lon="6.20524">
        <ele>891.76</ele>
        <time>2020-01-13T12:20:52Z</time>
      </trkpt>
      <trkpt lat="44.10406" lon="6.20527">
        <ele>891.76</ele>
        <time>2020-01-13T12:20:57Z</time>
      </trkpt>
      <trkpt lat="44.10406" lon="6.20529">
        <ele>892.72</ele>
        <time>2020-01-13T12:21:00Z</time>
      </trkpt>
      <trkpt lat="44.10407" lon="6.20541">
        <ele>893.68</ele>
        <time>2020-01-13T12:21:09Z</time>
      </trkpt>
      <trkpt lat="44.10408" lon="6.20551">
        <ele>893.68</ele>
        <time>2020-01-13T12:21:16Z</time>
      </trkpt>
      <trkpt lat="44.10414" lon="6.20562">
        <ele>894.64</ele>
        <time>2020-01-13T12:21:24Z</time>
      </trkpt>
      <trkpt lat="44.10414" lon="6.20567">
        <ele>895.12</ele>
        <time>2020-01-13T12:21:38Z</time>
      </trkpt>
      <trkpt lat="44.10418" lon="6.2057">
        <ele>894.16</ele>
        <time>2020-01-13T12:22:07Z</time>
      </trkpt>
      <trkpt lat="44.10422" lon="6.20567">
        <ele>894.64</ele>
        <time>2020-01-13T12:22:17Z</time>
      </trkpt>
      <trkpt lat="44.10423" lon="6.20565">
        <ele>895.61</ele>
        <time>2020-01-13T12:22:43Z</time>
      </trkpt>
      <trkpt lat="44.10421" lon="6.20563">
        <ele>896.09</ele>
        <time>2020-01-13T12:23:04Z</time>
      </trkpt>
      <trkpt lat="44.10421" lon="6.20561">
        <ele>895.61</ele>
        <time>2020-01-13T12:23:35Z</time>
      </trkpt>
      <trkpt lat="44.10427" lon="6.20564">
        <ele>895.61</ele>
        <time>2020-01-13T12:23:49Z</time>
      </trkpt>
      <trkpt lat="44.10428" lon="6.20565">
        <ele>896.57</ele>
        <time>2020-01-13T12:23:55Z</time>
      </trkpt>
      <trkpt lat="44.10427" lon="6.20568">
        <ele>896.09</ele>
        <time>2020-01-13T12:24:18Z</time>
      </trkpt>
      <trkpt lat="44.1043" lon="6.20567">
        <ele>896.09</ele>
        <time>2020-01-13T12:24:22Z</time>
      </trkpt>
      <trkpt lat="44.10434" lon="6.20565">
        <ele>896.57</ele>
        <time>2020-01-13T12:24:26Z</time>
      </trkpt>
      <trkpt lat="44.10444" lon="6.20555">
        <ele>897.05</ele>
        <time>2020-01-13T12:24:36Z</time>
      </trkpt>
      <trkpt lat="44.10446" lon="6.20554">
        <ele>897.53</ele>
        <time>2020-01-13T12:24:38Z</time>
      </trkpt>
      <trkpt lat="44.10448" lon="6.20552">
        <ele>897.05</ele>
        <time>2020-01-13T12:24:39Z</time>
      </trkpt>
      <trkpt lat="44.10455" lon="6.20545">
        <ele>898.01</ele>
        <time>2020-01-13T12:24:49Z</time>
      </trkpt>
      <trkpt lat="44.10459" lon="6.20542">
        <ele>898.97</ele>
        <time>2020-01-13T12:24:55Z</time>
      </trkpt>
      <trkpt lat="44.1046" lon="6.20536">
        <ele>899.45</ele>
        <time>2020-01-13T12:25:09Z</time>
      </trkpt>
      <trkpt lat="44.10467" lon="6.20533">
        <ele>898.97</ele>
        <time>2020-01-13T12:25:26Z</time>
      </trkpt>
      <trkpt lat="44.10473" lon="6.20531">
        <ele>900.41</ele>
        <time>2020-01-13T12:25:35Z</time>
      </trkpt>
      <trkpt lat="44.10476" lon="6.2053">
        <ele>899.93</ele>
        <time>2020-01-13T12:25:39Z</time>
      </trkpt>
      <trkpt lat="44.10482" lon="6.20527">
        <ele>900.41</ele>
        <time>2020-01-13T12:25:50Z</time>
      </trkpt>
      <trkpt lat="44.10482" lon="6.20528">
        <ele>900.89</ele>
        <time>2020-01-13T12:25:51Z</time>
      </trkpt>
      <trkpt lat="44.10487" lon="6.2053">
        <ele>900.89</ele>
        <time>2020-01-13T12:25:57Z</time>
      </trkpt>
      <trkpt lat="44.10492" lon="6.20531">
        <ele>901.37</ele>
        <time>2020-01-13T12:26:07Z</time>
      </trkpt>
      <trkpt lat="44.10494" lon="6.20533">
        <ele>901.85</ele>
        <time>2020-01-13T12:26:27Z</time>
      </trkpt>
      <trkpt lat="44.10502" lon="6.20532">
        <ele>902.82</ele>
        <time>2020-01-13T12:26:35Z</time>
      </trkpt>
      <trkpt lat="44.10507" lon="6.20531">
        <ele>903.3</ele>
        <time>2020-01-13T12:26:41Z</time>
      </trkpt>
      <trkpt lat="44.10508" lon="6.20532">
        <ele>903.3</ele>
        <time>2020-01-13T12:26:42Z</time>
      </trkpt>
      <trkpt lat="44.10511" lon="6.20531">
        <ele>904.26</ele>
        <time>2020-01-13T12:26:45Z</time>
      </trkpt>
      <trkpt lat="44.10516" lon="6.20532">
        <ele>904.26</ele>
        <time>2020-01-13T12:26:51Z</time>
      </trkpt>
      <trkpt lat="44.10518" lon="6.20533">
        <ele>904.74</ele>
        <time>2020-01-13T12:26:54Z</time>
      </trkpt>
      <trkpt lat="44.10525" lon="6.20534">
        <ele>905.22</ele>
        <time>2020-01-13T12:27:03Z</time>
      </trkpt>
      <trkpt lat="44.10531" lon="6.20535">
        <ele>905.7</ele>
        <time>2020-01-13T12:27:11Z</time>
      </trkpt>
      <trkpt lat="44.10532" lon="6.20539">
        <ele>905.7</ele>
        <time>2020-01-13T12:27:37Z</time>
      </trkpt>
      <trkpt lat="44.10532" lon="6.20542">
        <ele>905.7</ele>
        <time>2020-01-13T12:27:46Z</time>
      </trkpt>
      <trkpt lat="44.10539" lon="6.20544">
        <ele>906.66</ele>
        <time>2020-01-13T12:27:55Z</time>
      </trkpt>
      <trkpt lat="44.10546" lon="6.20549">
        <ele>906.18</ele>
        <time>2020-01-13T12:28:05Z</time>
      </trkpt>
      <trkpt lat="44.10551" lon="6.20555">
        <ele>905.7</ele>
        <time>2020-01-13T12:28:11Z</time>
      </trkpt>
      <trkpt lat="44.10561" lon="6.20565">
        <ele>907.14</ele>
        <time>2020-01-13T12:28:22Z</time>
      </trkpt>
      <trkpt lat="44.10569" lon="6.2057">
        <ele>907.62</ele>
        <time>2020-01-13T12:28:31Z</time>
      </trkpt>
      <trkpt lat="44.1057" lon="6.20571">
        <ele>907.62</ele>
        <time>2020-01-13T12:28:32Z</time>
      </trkpt>
      <trkpt lat="44.10577" lon="6.20581">
        <ele>908.1</ele>
        <time>2020-01-13T12:28:43Z</time>
      </trkpt>
      <trkpt lat="44.10577" lon="6.20585">
        <ele>908.1</ele>
        <time>2020-01-13T12:28:47Z</time>
      </trkpt>
      <trkpt lat="44.10572" lon="6.20594">
        <ele>908.58</ele>
        <time>2020-01-13T12:28:58Z</time>
      </trkpt>
      <trkpt lat="44.10562" lon="6.20602">
        <ele>909.06</ele>
        <time>2020-01-13T12:29:07Z</time>
      </trkpt>
      <trkpt lat="44.10559" lon="6.20605">
        <ele>908.1</ele>
        <time>2020-01-13T12:29:14Z</time>
      </trkpt>
      <trkpt lat="44.10552" lon="6.20606">
        <ele>908.58</ele>
        <time>2020-01-13T12:29:34Z</time>
      </trkpt>
      <trkpt lat="44.10553" lon="6.20607">
        <ele>909.54</ele>
        <time>2020-01-13T12:29:36Z</time>
      </trkpt>
      <trkpt lat="44.10555" lon="6.20608">
        <ele>908.58</ele>
        <time>2020-01-13T12:29:53Z</time>
      </trkpt>
      <trkpt lat="44.10554" lon="6.20608">
        <ele>909.06</ele>
        <time>2020-01-13T12:29:55Z</time>
      </trkpt>
      <trkpt lat="44.10548" lon="6.20614">
        <ele>909.06</ele>
        <time>2020-01-13T12:30:04Z</time>
      </trkpt>
      <trkpt lat="44.10547" lon="6.20616">
        <ele>909.06</ele>
        <time>2020-01-13T12:30:07Z</time>
      </trkpt>
      <trkpt lat="44.1054" lon="6.2062">
        <ele>909.06</ele>
        <time>2020-01-13T12:30:19Z</time>
      </trkpt>
      <trkpt lat="44.10537" lon="6.20625">
        <ele>909.06</ele>
        <time>2020-01-13T12:30:37Z</time>
      </trkpt>
      <trkpt lat="44.10533" lon="6.20629">
        <ele>909.54</ele>
        <time>2020-01-13T12:30:44Z</time>
      </trkpt>
      <trkpt lat="44.10531" lon="6.20631">
        <ele>908.58</ele>
        <time>2020-01-13T12:30:48Z</time>
      </trkpt>
      <trkpt lat="44.10525" lon="6.20641">
        <ele>909.54</ele>
        <time>2020-01-13T12:30:58Z</time>
      </trkpt>
      <trkpt lat="44.10524" lon="6.20648">
        <ele>910.51</ele>
        <time>2020-01-13T12:31:05Z</time>
      </trkpt>
      <trkpt lat="44.10527" lon="6.20666">
        <ele>912.43</ele>
        <time>2020-01-13T12:31:14Z</time>
      </trkpt>
      <trkpt lat="44.10529" lon="6.20667">
        <ele>912.91</ele>
        <time>2020-01-13T12:31:35Z</time>
      </trkpt>
      <trkpt lat="44.10527" lon="6.20677">
        <ele>913.87</ele>
        <time>2020-01-13T12:31:53Z</time>
      </trkpt>
      <trkpt lat="44.10527" lon="6.2068">
        <ele>914.35</ele>
        <time>2020-01-13T12:31:56Z</time>
      </trkpt>
      <trkpt lat="44.10524" lon="6.20691">
        <ele>914.83</ele>
        <time>2020-01-13T12:32:03Z</time>
      </trkpt>
      <trkpt lat="44.10524" lon="6.20704">
        <ele>916.27</ele>
        <time>2020-01-13T12:32:12Z</time>
      </trkpt>
      <trkpt lat="44.10526" lon="6.20711">
        <ele>918.2</ele>
        <time>2020-01-13T12:32:24Z</time>
      </trkpt>
      <trkpt lat="44.10527" lon="6.20714">
        <ele>918.68</ele>
        <time>2020-01-13T12:32:28Z</time>
      </trkpt>
      <trkpt lat="44.1053" lon="6.20719">
        <ele>919.64</ele>
        <time>2020-01-13T12:32:35Z</time>
      </trkpt>
      <trkpt lat="44.10534" lon="6.20725">
        <ele>920.12</ele>
        <time>2020-01-13T12:32:44Z</time>
      </trkpt>
      <trkpt lat="44.10535" lon="6.20726">
        <ele>920.12</ele>
        <time>2020-01-13T12:32:45Z</time>
      </trkpt>
      <trkpt lat="44.10537" lon="6.20727">
        <ele>921.08</ele>
        <time>2020-01-13T12:32:55Z</time>
      </trkpt>
      <trkpt lat="44.1054" lon="6.20727">
        <ele>920.6</ele>
        <time>2020-01-13T12:33:07Z</time>
      </trkpt>
      <trkpt lat="44.10544" lon="6.20732">
        <ele>921.56</ele>
        <time>2020-01-13T12:33:15Z</time>
      </trkpt>
      <trkpt lat="44.10549" lon="6.20737">
        <ele>922.52</ele>
        <time>2020-01-13T12:33:23Z</time>
      </trkpt>
      <trkpt lat="44.10552" lon="6.20738">
        <ele>923.96</ele>
        <time>2020-01-13T12:33:27Z</time>
      </trkpt>
      <trkpt lat="44.10559" lon="6.20738">
        <ele>924.93</ele>
        <time>2020-01-13T12:33:36Z</time>
      </trkpt>
      <trkpt lat="44.1056" lon="6.2074">
        <ele>925.41</ele>
        <time>2020-01-13T12:33:40Z</time>
      </trkpt>
      <trkpt lat="44.10565" lon="6.20739">
        <ele>926.37</ele>
        <time>2020-01-13T12:33:51Z</time>
      </trkpt>
      <trkpt lat="44.10568" lon="6.20739">
        <ele>926.85</ele>
        <time>2020-01-13T12:33:58Z</time>
      </trkpt>
      <trkpt lat="44.10571" lon="6.20738">
        <ele>926.85</ele>
        <time>2020-01-13T12:34:03Z</time>
      </trkpt>
      <trkpt lat="44.10574" lon="6.20736">
        <ele>927.33</ele>
        <time>2020-01-13T12:34:06Z</time>
      </trkpt>
      <trkpt lat="44.10578" lon="6.20733">
        <ele>928.29</ele>
        <time>2020-01-13T12:34:11Z</time>
      </trkpt>
      <trkpt lat="44.10579" lon="6.20732">
        <ele>927.81</ele>
        <time>2020-01-13T12:34:12Z</time>
      </trkpt>
      <trkpt lat="44.10579" lon="6.20731">
        <ele>928.29</ele>
        <time>2020-01-13T12:34:14Z</time>
      </trkpt>
      <trkpt lat="44.10583" lon="6.20728">
        <ele>929.25</ele>
        <time>2020-01-13T12:34:18Z</time>
      </trkpt>
      <trkpt lat="44.10587" lon="6.20725">
        <ele>930.21</ele>
        <time>2020-01-13T12:34:24Z</time>
      </trkpt>
      <trkpt lat="44.10589" lon="6.20723">
        <ele>930.69</ele>
        <time>2020-01-13T12:34:27Z</time>
      </trkpt>
      <trkpt lat="44.10592" lon="6.20721">
        <ele>930.69</ele>
        <time>2020-01-13T12:34:30Z</time>
      </trkpt>
      <trkpt lat="44.10598" lon="6.20717">
        <ele>931.65</ele>
        <time>2020-01-13T12:34:38Z</time>
      </trkpt>
      <trkpt lat="44.10602" lon="6.20714">
        <ele>932.62</ele>
        <time>2020-01-13T12:34:44Z</time>
      </trkpt>
      <trkpt lat="44.10607" lon="6.20711">
        <ele>933.1</ele>
        <time>2020-01-13T12:34:53Z</time>
      </trkpt>
      <trkpt lat="44.10611" lon="6.20707">
        <ele>934.54</ele>
        <time>2020-01-13T12:35:05Z</time>
      </trkpt>
      <trkpt lat="44.10611" lon="6.20707">
        <ele>934.06</ele>
        <time>2020-01-13T12:35:28Z</time>
      </trkpt>
      <trkpt lat="44.10619" lon="6.20703">
        <ele>935.02</ele>
        <time>2020-01-13T12:35:39Z</time>
      </trkpt>
      <trkpt lat="44.10621" lon="6.20701">
        <ele>933.58</ele>
        <time>2020-01-13T12:35:47Z</time>
      </trkpt>
      <trkpt lat="44.10622" lon="6.20701">
        <ele>934.54</ele>
        <time>2020-01-13T12:35:48Z</time>
      </trkpt>
      <trkpt lat="44.10624" lon="6.207">
        <ele>935.02</ele>
        <time>2020-01-13T12:35:51Z</time>
      </trkpt>
      <trkpt lat="44.10627" lon="6.20698">
        <ele>934.54</ele>
        <time>2020-01-13T12:35:54Z</time>
      </trkpt>
      <trkpt lat="44.10629" lon="6.20696">
        <ele>935.5</ele>
        <time>2020-01-13T12:35:57Z</time>
      </trkpt>
      <trkpt lat="44.10632" lon="6.20692">
        <ele>935.5</ele>
        <time>2020-01-13T12:36:02Z</time>
      </trkpt>
      <trkpt lat="44.10636" lon="6.20687">
        <ele>936.46</ele>
        <time>2020-01-13T12:36:08Z</time>
      </trkpt>
      <trkpt lat="44.10637" lon="6.20684">
        <ele>935.98</ele>
        <time>2020-01-13T12:36:11Z</time>
      </trkpt>
      <trkpt lat="44.1064" lon="6.2068">
        <ele>937.42</ele>
        <time>2020-01-13T12:36:16Z</time>
      </trkpt>
      <trkpt lat="44.1064" lon="6.20678">
        <ele>937.42</ele>
        <time>2020-01-13T12:36:17Z</time>
      </trkpt>
      <trkpt lat="44.10641" lon="6.20675">
        <ele>937.9</ele>
        <time>2020-01-13T12:36:20Z</time>
      </trkpt>
      <trkpt lat="44.10644" lon="6.20669">
        <ele>938.86</ele>
        <time>2020-01-13T12:36:28Z</time>
      </trkpt>
      <trkpt lat="44.10646" lon="6.20666">
        <ele>938.86</ele>
        <time>2020-01-13T12:36:31Z</time>
      </trkpt>
      <trkpt lat="44.10647" lon="6.20661">
        <ele>939.35</ele>
        <time>2020-01-13T12:36:36Z</time>
      </trkpt>
      <trkpt lat="44.10647" lon="6.20651">
        <ele>940.79</ele>
        <time>2020-01-13T12:36:45Z</time>
      </trkpt>
      <trkpt lat="44.10646" lon="6.20649">
        <ele>940.31</ele>
        <time>2020-01-13T12:36:50Z</time>
      </trkpt>
      <trkpt lat="44.10643" lon="6.20649">
        <ele>940.79</ele>
        <time>2020-01-13T12:36:53Z</time>
      </trkpt>
      <trkpt lat="44.10638" lon="6.20652">
        <ele>941.75</ele>
        <time>2020-01-13T12:37:03Z</time>
      </trkpt>
      <trkpt lat="44.1063" lon="6.20654">
        <ele>943.67</ele>
        <time>2020-01-13T12:37:16Z</time>
      </trkpt>
      <trkpt lat="44.10629" lon="6.20653">
        <ele>944.15</ele>
        <time>2020-01-13T12:37:18Z</time>
      </trkpt>
      <trkpt lat="44.10626" lon="6.20647">
        <ele>945.59</ele>
        <time>2020-01-13T12:37:26Z</time>
      </trkpt>
      <trkpt lat="44.10626" lon="6.20646">
        <ele>946.07</ele>
        <time>2020-01-13T12:37:27Z</time>
      </trkpt>
      <trkpt lat="44.10624" lon="6.20644">
        <ele>946.56</ele>
        <time>2020-01-13T12:37:36Z</time>
      </trkpt>
      <trkpt lat="44.1062" lon="6.20643">
        <ele>947.04</ele>
        <time>2020-01-13T12:37:54Z</time>
      </trkpt>
      <trkpt lat="44.10616" lon="6.20638">
        <ele>947.04</ele>
        <time>2020-01-13T12:38:06Z</time>
      </trkpt>
      <trkpt lat="44.10617" lon="6.20636">
        <ele>947.04</ele>
        <time>2020-01-13T12:38:22Z</time>
      </trkpt>
      <trkpt lat="44.10616" lon="6.20639">
        <ele>947.04</ele>
        <time>2020-01-13T12:38:48Z</time>
      </trkpt>
      <trkpt lat="44.10618" lon="6.20642">
        <ele>947.52</ele>
        <time>2020-01-13T12:38:54Z</time>
      </trkpt>
      <trkpt lat="44.1062" lon="6.20641">
        <ele>948</ele>
        <time>2020-01-13T12:38:58Z</time>
      </trkpt>
      <trkpt lat="44.10621" lon="6.20639">
        <ele>949.44</ele>
        <time>2020-01-13T12:39:01Z</time>
      </trkpt>
      <trkpt lat="44.10622" lon="6.20637">
        <ele>949.92</ele>
        <time>2020-01-13T12:39:03Z</time>
      </trkpt>
      <trkpt lat="44.10624" lon="6.20632">
        <ele>950.88</ele>
        <time>2020-01-13T12:39:13Z</time>
      </trkpt>
      <trkpt lat="44.10624" lon="6.20631">
        <ele>950.4</ele>
        <time>2020-01-13T12:39:18Z</time>
      </trkpt>
      <trkpt lat="44.10627" lon="6.20625">
        <ele>951.36</ele>
        <time>2020-01-13T12:39:27Z</time>
      </trkpt>
      <trkpt lat="44.10626" lon="6.20623">
        <ele>950.88</ele>
        <time>2020-01-13T12:39:29Z</time>
      </trkpt>
      <trkpt lat="44.10624" lon="6.20624">
        <ele>951.84</ele>
        <time>2020-01-13T12:39:44Z</time>
      </trkpt>
      <trkpt lat="44.10624" lon="6.20622">
        <ele>950.88</ele>
        <time>2020-01-13T12:40:14Z</time>
      </trkpt>
      <trkpt lat="44.10626" lon="6.20624">
        <ele>951.84</ele>
        <time>2020-01-13T12:40:44Z</time>
      </trkpt>
      <trkpt lat="44.10623" lon="6.20625">
        <ele>951.84</ele>
        <time>2020-01-13T12:40:48Z</time>
      </trkpt>
      <trkpt lat="44.10622" lon="6.20625">
        <ele>951.36</ele>
        <time>2020-01-13T12:40:58Z</time>
      </trkpt>
      <trkpt lat="44.10624" lon="6.20624">
        <ele>951.84</ele>
        <time>2020-01-13T12:41:23Z</time>
      </trkpt>
      <trkpt lat="44.10624" lon="6.20622">
        <ele>951.36</ele>
        <time>2020-01-13T12:41:25Z</time>
      </trkpt>
      <trkpt lat="44.10624" lon="6.2062">
        <ele>952.8</ele>
        <time>2020-01-13T12:41:28Z</time>
      </trkpt>
      <trkpt lat="44.10625" lon="6.2062">
        <ele>951.84</ele>
        <time>2020-01-13T12:41:44Z</time>
      </trkpt>
      <trkpt lat="44.10627" lon="6.20619">
        <ele>951.84</ele>
        <time>2020-01-13T12:42:06Z</time>
      </trkpt>
      <trkpt lat="44.10625" lon="6.20621">
        <ele>952.32</ele>
        <time>2020-01-13T12:42:31Z</time>
      </trkpt>
      <trkpt lat="44.10626" lon="6.20619">
        <ele>952.32</ele>
        <time>2020-01-13T12:42:56Z</time>
      </trkpt>
      <trkpt lat="44.10625" lon="6.20617">
        <ele>952.32</ele>
        <time>2020-01-13T12:43:18Z</time>
      </trkpt>
      <trkpt lat="44.10628" lon="6.20615">
        <ele>952.32</ele>
        <time>2020-01-13T12:43:55Z</time>
      </trkpt>
      <trkpt lat="44.10632" lon="6.20611">
        <ele>952.8</ele>
        <time>2020-01-13T12:44:31Z</time>
      </trkpt>
      <trkpt lat="44.10626" lon="6.20619">
        <ele>952.8</ele>
        <time>2020-01-13T12:45:01Z</time>
      </trkpt>
      <trkpt lat="44.10629" lon="6.20621">
        <ele>952.8</ele>
        <time>2020-01-13T12:45:37Z</time>
      </trkpt>
      <trkpt lat="44.10631" lon="6.20617">
        <ele>952.8</ele>
        <time>2020-01-13T12:46:12Z</time>
      </trkpt>
      <trkpt lat="44.10628" lon="6.20623">
        <ele>953.28</ele>
        <time>2020-01-13T12:46:51Z</time>
      </trkpt>
      <trkpt lat="44.10627" lon="6.20625">
        <ele>953.28</ele>
        <time>2020-01-13T12:47:19Z</time>
      </trkpt>
      <trkpt lat="44.10628" lon="6.20621">
        <ele>953.28</ele>
        <time>2020-01-13T12:47:51Z</time>
      </trkpt>
      <trkpt lat="44.10627" lon="6.20623">
        <ele>952.32</ele>
        <time>2020-01-13T12:48:22Z</time>
      </trkpt>
      <trkpt lat="44.10627" lon="6.20624">
        <ele>952.8</ele>
        <time>2020-01-13T12:48:57Z</time>
      </trkpt>
      <trkpt lat="44.10625" lon="6.20623">
        <ele>952.8</ele>
        <time>2020-01-13T12:49:32Z</time>
      </trkpt>
      <trkpt lat="44.10624" lon="6.2062">
        <ele>953.28</ele>
        <time>2020-01-13T12:49:51Z</time>
      </trkpt>
      <trkpt lat="44.10623" lon="6.20622">
        <ele>953.77</ele>
        <time>2020-01-13T12:50:18Z</time>
      </trkpt>
      <trkpt lat="44.10623" lon="6.20625">
        <ele>954.25</ele>
        <time>2020-01-13T12:50:52Z</time>
      </trkpt>
      <trkpt lat="44.10627" lon="6.20617">
        <ele>954.73</ele>
        <time>2020-01-13T12:51:11Z</time>
      </trkpt>
      <trkpt lat="44.10626" lon="6.2062">
        <ele>953.28</ele>
        <time>2020-01-13T12:51:17Z</time>
      </trkpt>
      <trkpt lat="44.10625" lon="6.20617">
        <ele>954.73</ele>
        <time>2020-01-13T12:51:36Z</time>
      </trkpt>
      <trkpt lat="44.10625" lon="6.20619">
        <ele>954.73</ele>
        <time>2020-01-13T12:51:48Z</time>
      </trkpt>
      <trkpt lat="44.10627" lon="6.20618">
        <ele>954.25</ele>
        <time>2020-01-13T12:52:12Z</time>
      </trkpt>
      <trkpt lat="44.10627" lon="6.2062">
        <ele>954.25</ele>
        <time>2020-01-13T12:52:34Z</time>
      </trkpt>
      <trkpt lat="44.10622" lon="6.20623">
        <ele>953.77</ele>
        <time>2020-01-13T12:52:52Z</time>
      </trkpt>
      <trkpt lat="44.10625" lon="6.20619">
        <ele>955.21</ele>
        <time>2020-01-13T12:53:07Z</time>
      </trkpt>
      <trkpt lat="44.10625" lon="6.20625">
        <ele>954.25</ele>
        <time>2020-01-13T12:53:46Z</time>
      </trkpt>
      <trkpt lat="44.10624" lon="6.20621">
        <ele>954.73</ele>
        <time>2020-01-13T12:54:00Z</time>
      </trkpt>
      <trkpt lat="44.10627" lon="6.20617">
        <ele>954.25</ele>
        <time>2020-01-13T12:54:28Z</time>
      </trkpt>
      <trkpt lat="44.10624" lon="6.20617">
        <ele>954.73</ele>
        <time>2020-01-13T12:54:54Z</time>
      </trkpt>
      <trkpt lat="44.10626" lon="6.20618">
        <ele>953.77</ele>
        <time>2020-01-13T12:55:26Z</time>
      </trkpt>
      <trkpt lat="44.10624" lon="6.20618">
        <ele>955.21</ele>
        <time>2020-01-13T12:56:02Z</time>
      </trkpt>
      <trkpt lat="44.10625" lon="6.20619">
        <ele>955.21</ele>
        <time>2020-01-13T12:56:32Z</time>
      </trkpt>
      <trkpt lat="44.10623" lon="6.2062">
        <ele>954.73</ele>
        <time>2020-01-13T12:57:11Z</time>
      </trkpt>
      <trkpt lat="44.10625" lon="6.20621">
        <ele>954.73</ele>
        <time>2020-01-13T12:57:38Z</time>
      </trkpt>
      <trkpt lat="44.10627" lon="6.20616">
        <ele>954.73</ele>
        <time>2020-01-13T12:58:00Z</time>
      </trkpt>
      <trkpt lat="44.10627" lon="6.20614">
        <ele>955.21</ele>
        <time>2020-01-13T12:58:35Z</time>
      </trkpt>
      <trkpt lat="44.10628" lon="6.20617">
        <ele>955.69</ele>
        <time>2020-01-13T12:59:14Z</time>
      </trkpt>
      <trkpt lat="44.10628" lon="6.20622">
        <ele>955.69</ele>
        <time>2020-01-13T12:59:57Z</time>
      </trkpt>
      <trkpt lat="44.10628" lon="6.20615">
        <ele>955.21</ele>
        <time>2020-01-13T13:00:25Z</time>
      </trkpt>
      <trkpt lat="44.10629" lon="6.20617">
        <ele>955.69</ele>
        <time>2020-01-13T13:00:56Z</time>
      </trkpt>
      <trkpt lat="44.10628" lon="6.20616">
        <ele>956.17</ele>
        <time>2020-01-13T13:01:18Z</time>
      </trkpt>
      <trkpt lat="44.10628" lon="6.20617">
        <ele>955.69</ele>
        <time>2020-01-13T13:01:36Z</time>
      </trkpt>
      <trkpt lat="44.10627" lon="6.20623">
        <ele>955.69</ele>
        <time>2020-01-13T13:01:47Z</time>
      </trkpt>
      <trkpt lat="44.10626" lon="6.20631">
        <ele>954.25</ele>
        <time>2020-01-13T13:01:58Z</time>
      </trkpt>
      <trkpt lat="44.10621" lon="6.20636">
        <ele>952.32</ele>
        <time>2020-01-13T13:02:09Z</time>
      </trkpt>
      <trkpt lat="44.10617" lon="6.2064">
        <ele>951.84</ele>
        <time>2020-01-13T13:02:16Z</time>
      </trkpt>
      <trkpt lat="44.10619" lon="6.20648">
        <ele>950.88</ele>
        <time>2020-01-13T13:02:30Z</time>
      </trkpt>
      <trkpt lat="44.10621" lon="6.20651">
        <ele>949.44</ele>
        <time>2020-01-13T13:02:46Z</time>
      </trkpt>
      <trkpt lat="44.10624" lon="6.20653">
        <ele>948.48</ele>
        <time>2020-01-13T13:03:06Z</time>
      </trkpt>
      <trkpt lat="44.1063" lon="6.20656">
        <ele>947.04</ele>
        <time>2020-01-13T13:03:17Z</time>
      </trkpt>
      <trkpt lat="44.10637" lon="6.20655">
        <ele>945.59</ele>
        <time>2020-01-13T13:03:27Z</time>
      </trkpt>
      <trkpt lat="44.10641" lon="6.20653">
        <ele>945.59</ele>
        <time>2020-01-13T13:03:34Z</time>
      </trkpt>
      <trkpt lat="44.10651" lon="6.20642">
        <ele>946.07</ele>
        <time>2020-01-13T13:03:45Z</time>
      </trkpt>
      <trkpt lat="44.10652" lon="6.2064">
        <ele>946.56</ele>
        <time>2020-01-13T13:03:46Z</time>
      </trkpt>
      <trkpt lat="44.10653" lon="6.20639">
        <ele>945.59</ele>
        <time>2020-01-13T13:03:47Z</time>
      </trkpt>
      <trkpt lat="44.10657" lon="6.20628">
        <ele>946.56</ele>
        <time>2020-01-13T13:03:58Z</time>
      </trkpt>
      <trkpt lat="44.10664" lon="6.20627">
        <ele>946.56</ele>
        <time>2020-01-13T13:04:12Z</time>
      </trkpt>
      <trkpt lat="44.10665" lon="6.20618">
        <ele>946.56</ele>
        <time>2020-01-13T13:04:33Z</time>
      </trkpt>
      <trkpt lat="44.10671" lon="6.20621">
        <ele>948.96</ele>
        <time>2020-01-13T13:04:44Z</time>
      </trkpt>
      <trkpt lat="44.10678" lon="6.2063">
        <ele>950.4</ele>
        <time>2020-01-13T13:04:55Z</time>
      </trkpt>
      <trkpt lat="44.10683" lon="6.20631">
        <ele>950.88</ele>
        <time>2020-01-13T13:05:02Z</time>
      </trkpt>
      <trkpt lat="44.10687" lon="6.20631">
        <ele>950.4</ele>
        <time>2020-01-13T13:05:06Z</time>
      </trkpt>
      <trkpt lat="44.10691" lon="6.20631">
        <ele>951.84</ele>
        <time>2020-01-13T13:05:12Z</time>
      </trkpt>
      <trkpt lat="44.10692" lon="6.20632">
        <ele>952.32</ele>
        <time>2020-01-13T13:05:13Z</time>
      </trkpt>
      <trkpt lat="44.107" lon="6.20633">
        <ele>953.77</ele>
        <time>2020-01-13T13:05:22Z</time>
      </trkpt>
      <trkpt lat="44.10701" lon="6.20631">
        <ele>953.77</ele>
        <time>2020-01-13T13:05:36Z</time>
      </trkpt>
      <trkpt lat="44.10708" lon="6.20634">
        <ele>955.21</ele>
        <time>2020-01-13T13:05:50Z</time>
      </trkpt>
      <trkpt lat="44.10709" lon="6.20635">
        <ele>955.21</ele>
        <time>2020-01-13T13:05:51Z</time>
      </trkpt>
      <trkpt lat="44.10715" lon="6.20639">
        <ele>957.13</ele>
        <time>2020-01-13T13:06:02Z</time>
      </trkpt>
      <trkpt lat="44.1072" lon="6.20644">
        <ele>958.09</ele>
        <time>2020-01-13T13:06:12Z</time>
      </trkpt>
      <trkpt lat="44.10721" lon="6.20644">
        <ele>959.05</ele>
        <time>2020-01-13T13:06:13Z</time>
      </trkpt>
      <trkpt lat="44.10725" lon="6.20647">
        <ele>959.53</ele>
        <time>2020-01-13T13:06:22Z</time>
      </trkpt>
      <trkpt lat="44.10726" lon="6.20652">
        <ele>959.53</ele>
        <time>2020-01-13T13:06:31Z</time>
      </trkpt>
      <trkpt lat="44.10727" lon="6.20657">
        <ele>960.98</ele>
        <time>2020-01-13T13:06:43Z</time>
      </trkpt>
      <trkpt lat="44.10726" lon="6.20653">
        <ele>960.49</ele>
        <time>2020-01-13T13:06:58Z</time>
      </trkpt>
      <trkpt lat="44.10731" lon="6.20661">
        <ele>961.46</ele>
        <time>2020-01-13T13:07:14Z</time>
      </trkpt>
      <trkpt lat="44.10734" lon="6.20663">
        <ele>961.94</ele>
        <time>2020-01-13T13:07:17Z</time>
      </trkpt>
      <trkpt lat="44.10739" lon="6.20665">
        <ele>963.86</ele>
        <time>2020-01-13T13:07:27Z</time>
      </trkpt>
      <trkpt lat="44.10743" lon="6.20669">
        <ele>966.26</ele>
        <time>2020-01-13T13:07:43Z</time>
      </trkpt>
      <trkpt lat="44.10746" lon="6.20672">
        <ele>967.22</ele>
        <time>2020-01-13T13:07:53Z</time>
      </trkpt>
      <trkpt lat="44.10749" lon="6.20676">
        <ele>968.18</ele>
        <time>2020-01-13T13:08:04Z</time>
      </trkpt>
      <trkpt lat="44.10753" lon="6.20679">
        <ele>970.11</ele>
        <time>2020-01-13T13:08:25Z</time>
      </trkpt>
      <trkpt lat="44.10758" lon="6.20682">
        <ele>971.55</ele>
        <time>2020-01-13T13:08:34Z</time>
      </trkpt>
      <trkpt lat="44.10759" lon="6.20682">
        <ele>972.51</ele>
        <time>2020-01-13T13:08:52Z</time>
      </trkpt>
      <trkpt lat="44.10759" lon="6.20685">
        <ele>972.99</ele>
        <time>2020-01-13T13:09:09Z</time>
      </trkpt>
      <trkpt lat="44.10758" lon="6.20688">
        <ele>974.43</ele>
        <time>2020-01-13T13:09:20Z</time>
      </trkpt>
      <trkpt lat="44.1076" lon="6.20692">
        <ele>975.39</ele>
        <time>2020-01-13T13:09:44Z</time>
      </trkpt>
      <trkpt lat="44.10761" lon="6.20697">
        <ele>976.84</ele>
        <time>2020-01-13T13:09:54Z</time>
      </trkpt>
      <trkpt lat="44.10762" lon="6.20702">
        <ele>978.28</ele>
        <time>2020-01-13T13:10:02Z</time>
      </trkpt>
      <trkpt lat="44.10764" lon="6.20707">
        <ele>980.2</ele>
        <time>2020-01-13T13:10:12Z</time>
      </trkpt>
      <trkpt lat="44.10765" lon="6.2071">
        <ele>979.72</ele>
        <time>2020-01-13T13:10:27Z</time>
      </trkpt>
      <trkpt lat="44.10768" lon="6.20715">
        <ele>981.16</ele>
        <time>2020-01-13T13:10:37Z</time>
      </trkpt>
      <trkpt lat="44.1077" lon="6.2072">
        <ele>982.6</ele>
        <time>2020-01-13T13:10:46Z</time>
      </trkpt>
      <trkpt lat="44.10772" lon="6.2072">
        <ele>983.09</ele>
        <time>2020-01-13T13:10:49Z</time>
      </trkpt>
      <trkpt lat="44.10775" lon="6.20719">
        <ele>984.53</ele>
        <time>2020-01-13T13:10:58Z</time>
      </trkpt>
      <trkpt lat="44.10776" lon="6.20715">
        <ele>985.97</ele>
        <time>2020-01-13T13:11:07Z</time>
      </trkpt>
      <trkpt lat="44.10776" lon="6.20713">
        <ele>986.93</ele>
        <time>2020-01-13T13:11:26Z</time>
      </trkpt>
      <trkpt lat="44.1078" lon="6.20714">
        <ele>988.37</ele>
        <time>2020-01-13T13:11:34Z</time>
      </trkpt>
      <trkpt lat="44.10784" lon="6.20714">
        <ele>989.33</ele>
        <time>2020-01-13T13:11:44Z</time>
      </trkpt>
      <trkpt lat="44.10787" lon="6.20714">
        <ele>989.33</ele>
        <time>2020-01-13T13:12:12Z</time>
      </trkpt>
      <trkpt lat="44.10788" lon="6.20719">
        <ele>990.78</ele>
        <time>2020-01-13T13:12:24Z</time>
      </trkpt>
      <trkpt lat="44.10786" lon="6.20724">
        <ele>993.18</ele>
        <time>2020-01-13T13:12:35Z</time>
      </trkpt>
      <trkpt lat="44.10787" lon="6.20729">
        <ele>993.66</ele>
        <time>2020-01-13T13:12:49Z</time>
      </trkpt>
      <trkpt lat="44.1079" lon="6.20732">
        <ele>995.1</ele>
        <time>2020-01-13T13:13:01Z</time>
      </trkpt>
      <trkpt lat="44.10791" lon="6.20738">
        <ele>996.54</ele>
        <time>2020-01-13T13:13:10Z</time>
      </trkpt>
      <trkpt lat="44.10791" lon="6.20742">
        <ele>997.99</ele>
        <time>2020-01-13T13:13:27Z</time>
      </trkpt>
      <trkpt lat="44.10792" lon="6.20748">
        <ele>999.43</ele>
        <time>2020-01-13T13:13:40Z</time>
      </trkpt>
      <trkpt lat="44.10792" lon="6.20751">
        <ele>999.43</ele>
        <time>2020-01-13T13:13:44Z</time>
      </trkpt>
      <trkpt lat="44.1079" lon="6.20757">
        <ele>1001.35</ele>
        <time>2020-01-13T13:13:52Z</time>
      </trkpt>
      <trkpt lat="44.10792" lon="6.20755">
        <ele>1000.87</ele>
        <time>2020-01-13T13:14:20Z</time>
      </trkpt>
      <trkpt lat="44.10792" lon="6.20761">
        <ele>1001.83</ele>
        <time>2020-01-13T13:14:45Z</time>
      </trkpt>
      <trkpt lat="44.10791" lon="6.20768">
        <ele>1002.79</ele>
        <time>2020-01-13T13:14:54Z</time>
      </trkpt>
      <trkpt lat="44.10788" lon="6.20774">
        <ele>1003.75</ele>
        <time>2020-01-13T13:15:03Z</time>
      </trkpt>
      <trkpt lat="44.10786" lon="6.20784">
        <ele>1003.75</ele>
        <time>2020-01-13T13:15:14Z</time>
      </trkpt>
      <trkpt lat="44.10786" lon="6.20794">
        <ele>1004.23</ele>
        <time>2020-01-13T13:15:23Z</time>
      </trkpt>
      <trkpt lat="44.10786" lon="6.20805">
        <ele>1004.72</ele>
        <time>2020-01-13T13:15:34Z</time>
      </trkpt>
      <trkpt lat="44.10786" lon="6.20807">
        <ele>1005.68</ele>
        <time>2020-01-13T13:15:47Z</time>
      </trkpt>
      <trkpt lat="44.10785" lon="6.20812">
        <ele>1005.68</ele>
        <time>2020-01-13T13:16:14Z</time>
      </trkpt>
      <trkpt lat="44.10785" lon="6.20815">
        <ele>1006.16</ele>
        <time>2020-01-13T13:16:27Z</time>
      </trkpt>
      <trkpt lat="44.10785" lon="6.20815">
        <ele>1006.64</ele>
        <time>2020-01-13T13:17:02Z</time>
      </trkpt>
      <trkpt lat="44.10785" lon="6.20816">
        <ele>1005.68</ele>
        <time>2020-01-13T13:17:16Z</time>
      </trkpt>
      <trkpt lat="44.10784" lon="6.20815">
        <ele>1006.16</ele>
        <time>2020-01-13T13:17:42Z</time>
      </trkpt>
      <trkpt lat="44.10786" lon="6.20817">
        <ele>1006.16</ele>
        <time>2020-01-13T13:18:16Z</time>
      </trkpt>
      <trkpt lat="44.10791" lon="6.20825">
        <ele>1004.72</ele>
        <time>2020-01-13T13:18:28Z</time>
      </trkpt>
      <trkpt lat="44.10792" lon="6.20826">
        <ele>1004.72</ele>
        <time>2020-01-13T13:18:44Z</time>
      </trkpt>
      <trkpt lat="44.10792" lon="6.20826">
        <ele>1004.23</ele>
        <time>2020-01-13T13:19:37Z</time>
      </trkpt>
      <trkpt lat="44.10793" lon="6.20825">
        <ele>1004.23</ele>
        <time>2020-01-13T13:20:01Z</time>
      </trkpt>
      <trkpt lat="44.10794" lon="6.20826">
        <ele>1004.23</ele>
        <time>2020-01-13T13:20:34Z</time>
      </trkpt>
      <trkpt lat="44.10794" lon="6.20826">
        <ele>1004.23</ele>
        <time>2020-01-13T13:21:08Z</time>
      </trkpt>
      <trkpt lat="44.10791" lon="6.20822">
        <ele>1004.23</ele>
        <time>2020-01-13T13:21:31Z</time>
      </trkpt>
      <trkpt lat="44.1079" lon="6.2082">
        <ele>1005.2</ele>
        <time>2020-01-13T13:21:34Z</time>
      </trkpt>
      <trkpt lat="44.10788" lon="6.20817">
        <ele>1005.2</ele>
        <time>2020-01-13T13:21:37Z</time>
      </trkpt>
      <trkpt lat="44.10788" lon="6.20809">
        <ele>1006.16</ele>
        <time>2020-01-13T13:21:48Z</time>
      </trkpt>
      <trkpt lat="44.1079" lon="6.20808">
        <ele>1005.68</ele>
        <time>2020-01-13T13:21:52Z</time>
      </trkpt>
      <trkpt lat="44.10791" lon="6.20807">
        <ele>1005.68</ele>
        <time>2020-01-13T13:22:02Z</time>
      </trkpt>
      <trkpt lat="44.10792" lon="6.20805">
        <ele>1007.12</ele>
        <time>2020-01-13T13:22:17Z</time>
      </trkpt>
      <trkpt lat="44.10792" lon="6.20806">
        <ele>1007.12</ele>
        <time>2020-01-13T13:22:58Z</time>
      </trkpt>
      <trkpt lat="44.1079" lon="6.20807">
        <ele>1006.16</ele>
        <time>2020-01-13T13:23:27Z</time>
      </trkpt>
      <trkpt lat="44.10789" lon="6.20807">
        <ele>1006.16</ele>
        <time>2020-01-13T13:23:28Z</time>
      </trkpt>
      <trkpt lat="44.10787" lon="6.20807">
        <ele>1005.2</ele>
        <time>2020-01-13T13:23:39Z</time>
      </trkpt>
      <trkpt lat="44.10787" lon="6.20804">
        <ele>1005.68</ele>
        <time>2020-01-13T13:23:47Z</time>
      </trkpt>
      <trkpt lat="44.10788" lon="6.20797">
        <ele>1005.2</ele>
        <time>2020-01-13T13:23:54Z</time>
      </trkpt>
      <trkpt lat="44.10788" lon="6.20795">
        <ele>1004.72</ele>
        <time>2020-01-13T13:23:55Z</time>
      </trkpt>
      <trkpt lat="44.10788" lon="6.20794">
        <ele>1004.23</ele>
        <time>2020-01-13T13:23:56Z</time>
      </trkpt>
      <trkpt lat="44.10789" lon="6.20788">
        <ele>1004.23</ele>
        <time>2020-01-13T13:24:02Z</time>
      </trkpt>
      <trkpt lat="44.10789" lon="6.20785">
        <ele>1003.75</ele>
        <time>2020-01-13T13:24:23Z</time>
      </trkpt>
      <trkpt lat="44.10789" lon="6.20783">
        <ele>1003.75</ele>
        <time>2020-01-13T13:24:32Z</time>
      </trkpt>
      <trkpt lat="44.10791" lon="6.20775">
        <ele>1003.75</ele>
        <time>2020-01-13T13:24:39Z</time>
      </trkpt>
      <trkpt lat="44.10793" lon="6.20769">
        <ele>1002.79</ele>
        <time>2020-01-13T13:24:53Z</time>
      </trkpt>
      <trkpt lat="44.10794" lon="6.20764">
        <ele>1001.83</ele>
        <time>2020-01-13T13:24:59Z</time>
      </trkpt>
      <trkpt lat="44.10795" lon="6.20757">
        <ele>1001.83</ele>
        <time>2020-01-13T13:25:10Z</time>
      </trkpt>
      <trkpt lat="44.10794" lon="6.20753">
        <ele>999.91</ele>
        <time>2020-01-13T13:25:24Z</time>
      </trkpt>
      <trkpt lat="44.10793" lon="6.20746">
        <ele>998.95</ele>
        <time>2020-01-13T13:25:50Z</time>
      </trkpt>
      <trkpt lat="44.10792" lon="6.2074">
        <ele>997.02</ele>
        <time>2020-01-13T13:26:06Z</time>
      </trkpt>
      <trkpt lat="44.10791" lon="6.20734">
        <ele>996.06</ele>
        <time>2020-01-13T13:26:20Z</time>
      </trkpt>
      <trkpt lat="44.10791" lon="6.2073">
        <ele>994.62</ele>
        <time>2020-01-13T13:26:26Z</time>
      </trkpt>
      <trkpt lat="44.10789" lon="6.20728">
        <ele>993.66</ele>
        <time>2020-01-13T13:26:41Z</time>
      </trkpt>
      <trkpt lat="44.10788" lon="6.20722">
        <ele>992.7</ele>
        <time>2020-01-13T13:26:55Z</time>
      </trkpt>
      <trkpt lat="44.10788" lon="6.20717">
        <ele>991.26</ele>
        <time>2020-01-13T13:27:12Z</time>
      </trkpt>
      <trkpt lat="44.10787" lon="6.20713">
        <ele>989.81</ele>
        <time>2020-01-13T13:27:28Z</time>
      </trkpt>
      <trkpt lat="44.10786" lon="6.20709">
        <ele>990.3</ele>
        <time>2020-01-13T13:27:48Z</time>
      </trkpt>
      <trkpt lat="44.10784" lon="6.20706">
        <ele>989.33</ele>
        <time>2020-01-13T13:27:58Z</time>
      </trkpt>
      <trkpt lat="44.1078" lon="6.20705">
        <ele>987.89</ele>
        <time>2020-01-13T13:28:10Z</time>
      </trkpt>
      <trkpt lat="44.10776" lon="6.2071">
        <ele>985.97</ele>
        <time>2020-01-13T13:28:24Z</time>
      </trkpt>
      <trkpt lat="44.10774" lon="6.20716">
        <ele>985.01</ele>
        <time>2020-01-13T13:28:39Z</time>
      </trkpt>
      <trkpt lat="44.10773" lon="6.20718">
        <ele>983.57</ele>
        <time>2020-01-13T13:28:51Z</time>
      </trkpt>
      <trkpt lat="44.10771" lon="6.20716">
        <ele>983.09</ele>
        <time>2020-01-13T13:29:03Z</time>
      </trkpt>
      <trkpt lat="44.10769" lon="6.20711">
        <ele>980.68</ele>
        <time>2020-01-13T13:29:18Z</time>
      </trkpt>
      <trkpt lat="44.10766" lon="6.20707">
        <ele>979.24</ele>
        <time>2020-01-13T13:29:30Z</time>
      </trkpt>
      <trkpt lat="44.10766" lon="6.207">
        <ele>977.8</ele>
        <time>2020-01-13T13:29:48Z</time>
      </trkpt>
      <trkpt lat="44.10763" lon="6.20693">
        <ele>975.88</ele>
        <time>2020-01-13T13:30:02Z</time>
      </trkpt>
      <trkpt lat="44.10761" lon="6.2069">
        <ele>974.43</ele>
        <time>2020-01-13T13:30:14Z</time>
      </trkpt>
      <trkpt lat="44.1076" lon="6.20684">
        <ele>972.99</ele>
        <time>2020-01-13T13:30:27Z</time>
      </trkpt>
      <trkpt lat="44.10759" lon="6.20681">
        <ele>971.55</ele>
        <time>2020-01-13T13:30:41Z</time>
      </trkpt>
      <trkpt lat="44.10755" lon="6.20679">
        <ele>971.07</ele>
        <time>2020-01-13T13:30:55Z</time>
      </trkpt>
      <trkpt lat="44.10753" lon="6.20676">
        <ele>969.15</ele>
        <time>2020-01-13T13:31:07Z</time>
      </trkpt>
      <trkpt lat="44.10752" lon="6.20672">
        <ele>967.7</ele>
        <time>2020-01-13T13:31:18Z</time>
      </trkpt>
      <trkpt lat="44.1075" lon="6.20669">
        <ele>967.22</ele>
        <time>2020-01-13T13:31:32Z</time>
      </trkpt>
      <trkpt lat="44.10746" lon="6.20665">
        <ele>966.74</ele>
        <time>2020-01-13T13:31:48Z</time>
      </trkpt>
      <trkpt lat="44.10742" lon="6.20664">
        <ele>965.78</ele>
        <time>2020-01-13T13:32:08Z</time>
      </trkpt>
      <trkpt lat="44.10741" lon="6.20664">
        <ele>964.82</ele>
        <time>2020-01-13T13:32:25Z</time>
      </trkpt>
      <trkpt lat="44.10736" lon="6.20661">
        <ele>962.42</ele>
        <time>2020-01-13T13:32:41Z</time>
      </trkpt>
      <trkpt lat="44.10732" lon="6.20655">
        <ele>960.98</ele>
        <time>2020-01-13T13:32:51Z</time>
      </trkpt>
      <trkpt lat="44.1073" lon="6.20653">
        <ele>960.01</ele>
        <time>2020-01-13T13:33:03Z</time>
      </trkpt>
      <trkpt lat="44.10731" lon="6.20651">
        <ele>959.05</ele>
        <time>2020-01-13T13:33:25Z</time>
      </trkpt>
      <trkpt lat="44.10729" lon="6.20647">
        <ele>959.05</ele>
        <time>2020-01-13T13:33:37Z</time>
      </trkpt>
      <trkpt lat="44.10729" lon="6.20649">
        <ele>959.05</ele>
        <time>2020-01-13T13:33:45Z</time>
      </trkpt>
      <trkpt lat="44.10729" lon="6.2065">
        <ele>959.05</ele>
        <time>2020-01-13T13:33:56Z</time>
      </trkpt>
      <trkpt lat="44.10728" lon="6.20647">
        <ele>959.05</ele>
        <time>2020-01-13T13:34:01Z</time>
      </trkpt>
      <trkpt lat="44.10723" lon="6.20641">
        <ele>958.09</ele>
        <time>2020-01-13T13:34:14Z</time>
      </trkpt>
      <trkpt lat="44.10715" lon="6.20634">
        <ele>955.69</ele>
        <time>2020-01-13T13:34:30Z</time>
      </trkpt>
      <trkpt lat="44.10709" lon="6.20631">
        <ele>954.25</ele>
        <time>2020-01-13T13:34:41Z</time>
      </trkpt>
      <trkpt lat="44.10705" lon="6.20629">
        <ele>954.25</ele>
        <time>2020-01-13T13:34:45Z</time>
      </trkpt>
      <trkpt lat="44.10699" lon="6.20627">
        <ele>952.8</ele>
        <time>2020-01-13T13:34:56Z</time>
      </trkpt>
      <trkpt lat="44.10688" lon="6.20626">
        <ele>950.4</ele>
        <time>2020-01-13T13:35:09Z</time>
      </trkpt>
      <trkpt lat="44.10686" lon="6.20626">
        <ele>950.4</ele>
        <time>2020-01-13T13:35:11Z</time>
      </trkpt>
      <trkpt lat="44.10682" lon="6.20626">
        <ele>949.92</ele>
        <time>2020-01-13T13:35:17Z</time>
      </trkpt>
      <trkpt lat="44.10678" lon="6.20624">
        <ele>949.44</ele>
        <time>2020-01-13T13:35:22Z</time>
      </trkpt>
      <trkpt lat="44.10675" lon="6.2062">
        <ele>948.48</ele>
        <time>2020-01-13T13:35:28Z</time>
      </trkpt>
      <trkpt lat="44.1067" lon="6.20613">
        <ele>947.04</ele>
        <time>2020-01-13T13:35:40Z</time>
      </trkpt>
      <trkpt lat="44.10668" lon="6.20608">
        <ele>946.07</ele>
        <time>2020-01-13T13:35:50Z</time>
      </trkpt>
      <trkpt lat="44.1067" lon="6.20603">
        <ele>945.59</ele>
        <time>2020-01-13T13:35:55Z</time>
      </trkpt>
      <trkpt lat="44.10671" lon="6.20592">
        <ele>946.07</ele>
        <time>2020-01-13T13:36:06Z</time>
      </trkpt>
      <trkpt lat="44.10671" lon="6.20592">
        <ele>947.04</ele>
        <time>2020-01-13T13:36:10Z</time>
      </trkpt>
      <trkpt lat="44.10668" lon="6.20589">
        <ele>947.04</ele>
        <time>2020-01-13T13:36:33Z</time>
      </trkpt>
      <trkpt lat="44.10669" lon="6.20583">
        <ele>947.52</ele>
        <time>2020-01-13T13:36:48Z</time>
      </trkpt>
      <trkpt lat="44.10668" lon="6.20586">
        <ele>947.04</ele>
        <time>2020-01-13T13:36:55Z</time>
      </trkpt>
      <trkpt lat="44.10663" lon="6.20598">
        <ele>946.07</ele>
        <time>2020-01-13T13:37:07Z</time>
      </trkpt>
      <trkpt lat="44.10661" lon="6.20603">
        <ele>946.07</ele>
        <time>2020-01-13T13:37:12Z</time>
      </trkpt>
      <trkpt lat="44.10659" lon="6.2061">
        <ele>947.04</ele>
        <time>2020-01-13T13:37:23Z</time>
      </trkpt>
      <trkpt lat="44.10654" lon="6.20616">
        <ele>947.52</ele>
        <time>2020-01-13T13:37:30Z</time>
      </trkpt>
      <trkpt lat="44.10649" lon="6.20627">
        <ele>947.04</ele>
        <time>2020-01-13T13:37:40Z</time>
      </trkpt>
      <trkpt lat="44.10649" lon="6.20627">
        <ele>947.04</ele>
        <time>2020-01-13T13:37:41Z</time>
      </trkpt>
      <trkpt lat="44.10645" lon="6.20631">
        <ele>946.56</ele>
        <time>2020-01-13T13:37:51Z</time>
      </trkpt>
      <trkpt lat="44.10646" lon="6.20642">
        <ele>945.59</ele>
        <time>2020-01-13T13:38:01Z</time>
      </trkpt>
      <trkpt lat="44.10647" lon="6.20657">
        <ele>944.15</ele>
        <time>2020-01-13T13:38:13Z</time>
      </trkpt>
      <trkpt lat="44.10646" lon="6.20665">
        <ele>942.23</ele>
        <time>2020-01-13T13:38:21Z</time>
      </trkpt>
      <trkpt lat="44.1064" lon="6.2068">
        <ele>942.23</ele>
        <time>2020-01-13T13:38:33Z</time>
      </trkpt>
      <trkpt lat="44.10638" lon="6.20682">
        <ele>940.31</ele>
        <time>2020-01-13T13:38:52Z</time>
      </trkpt>
      <trkpt lat="44.10635" lon="6.20685">
        <ele>940.79</ele>
        <time>2020-01-13T13:39:00Z</time>
      </trkpt>
      <trkpt lat="44.10632" lon="6.20691">
        <ele>939.83</ele>
        <time>2020-01-13T13:39:06Z</time>
      </trkpt>
      <trkpt lat="44.10625" lon="6.20697">
        <ele>939.83</ele>
        <time>2020-01-13T13:39:13Z</time>
      </trkpt>
      <trkpt lat="44.1061" lon="6.20703">
        <ele>939.35</ele>
        <time>2020-01-13T13:39:25Z</time>
      </trkpt>
      <trkpt lat="44.10602" lon="6.2071">
        <ele>937.9</ele>
        <time>2020-01-13T13:39:36Z</time>
      </trkpt>
      <trkpt lat="44.106" lon="6.2071">
        <ele>937.9</ele>
        <time>2020-01-13T13:39:38Z</time>
      </trkpt>
      <trkpt lat="44.1059" lon="6.20715">
        <ele>935.98</ele>
        <time>2020-01-13T13:39:48Z</time>
      </trkpt>
      <trkpt lat="44.10589" lon="6.20715">
        <ele>935.5</ele>
        <time>2020-01-13T13:39:50Z</time>
      </trkpt>
      <trkpt lat="44.10585" lon="6.20718">
        <ele>935.02</ele>
        <time>2020-01-13T13:39:55Z</time>
      </trkpt>
      <trkpt lat="44.10571" lon="6.20726">
        <ele>933.1</ele>
        <time>2020-01-13T13:40:08Z</time>
      </trkpt>
      <trkpt lat="44.1056" lon="6.20727">
        <ele>931.17</ele>
        <time>2020-01-13T13:40:24Z</time>
      </trkpt>
      <trkpt lat="44.10553" lon="6.20723">
        <ele>929.25</ele>
        <time>2020-01-13T13:40:34Z</time>
      </trkpt>
      <trkpt lat="44.1054" lon="6.20721">
        <ele>927.33</ele>
        <time>2020-01-13T13:40:45Z</time>
      </trkpt>
      <trkpt lat="44.10531" lon="6.20717">
        <ele>925.89</ele>
        <time>2020-01-13T13:40:58Z</time>
      </trkpt>
      <trkpt lat="44.10529" lon="6.20714">
        <ele>924.93</ele>
        <time>2020-01-13T13:41:03Z</time>
      </trkpt>
      <trkpt lat="44.10527" lon="6.20711">
        <ele>924.45</ele>
        <time>2020-01-13T13:41:06Z</time>
      </trkpt>
      <trkpt lat="44.10527" lon="6.20707">
        <ele>924.45</ele>
        <time>2020-01-13T13:41:09Z</time>
      </trkpt>
      <trkpt lat="44.10527" lon="6.20701">
        <ele>923.48</ele>
        <time>2020-01-13T13:41:14Z</time>
      </trkpt>
      <trkpt lat="44.10528" lon="6.20695">
        <ele>923</ele>
        <time>2020-01-13T13:41:18Z</time>
      </trkpt>
      <trkpt lat="44.10531" lon="6.20687">
        <ele>922.52</ele>
        <time>2020-01-13T13:41:25Z</time>
      </trkpt>
      <trkpt lat="44.10531" lon="6.20682">
        <ele>922.04</ele>
        <time>2020-01-13T13:41:30Z</time>
      </trkpt>
      <trkpt lat="44.10534" lon="6.20668">
        <ele>919.64</ele>
        <time>2020-01-13T13:41:43Z</time>
      </trkpt>
      <trkpt lat="44.1053" lon="6.20658">
        <ele>918.2</ele>
        <time>2020-01-13T13:41:55Z</time>
      </trkpt>
      <trkpt lat="44.10529" lon="6.20653">
        <ele>918.2</ele>
        <time>2020-01-13T13:42:00Z</time>
      </trkpt>
      <trkpt lat="44.10535" lon="6.20639">
        <ele>917.72</ele>
        <time>2020-01-13T13:42:11Z</time>
      </trkpt>
      <trkpt lat="44.10537" lon="6.20636">
        <ele>918.2</ele>
        <time>2020-01-13T13:42:14Z</time>
      </trkpt>
      <trkpt lat="44.10546" lon="6.20625">
        <ele>917.72</ele>
        <time>2020-01-13T13:42:25Z</time>
      </trkpt>
      <trkpt lat="44.1055" lon="6.20617">
        <ele>918.2</ele>
        <time>2020-01-13T13:42:33Z</time>
      </trkpt>
      <trkpt lat="44.10559" lon="6.20607">
        <ele>918.68</ele>
        <time>2020-01-13T13:42:44Z</time>
      </trkpt>
      <trkpt lat="44.10561" lon="6.20605">
        <ele>918.2</ele>
        <time>2020-01-13T13:42:46Z</time>
      </trkpt>
      <trkpt lat="44.10563" lon="6.20604">
        <ele>918.68</ele>
        <time>2020-01-13T13:42:48Z</time>
      </trkpt>
      <trkpt lat="44.10567" lon="6.20599">
        <ele>918.68</ele>
        <time>2020-01-13T13:42:54Z</time>
      </trkpt>
      <trkpt lat="44.10574" lon="6.20592">
        <ele>918.2</ele>
        <time>2020-01-13T13:43:06Z</time>
      </trkpt>
      <trkpt lat="44.10577" lon="6.20585">
        <ele>918.2</ele>
        <time>2020-01-13T13:43:18Z</time>
      </trkpt>
      <trkpt lat="44.10572" lon="6.2058">
        <ele>918.2</ele>
        <time>2020-01-13T13:43:23Z</time>
      </trkpt>
      <trkpt lat="44.10566" lon="6.20571">
        <ele>916.75</ele>
        <time>2020-01-13T13:43:30Z</time>
      </trkpt>
      <trkpt lat="44.10563" lon="6.20562">
        <ele>916.27</ele>
        <time>2020-01-13T13:43:37Z</time>
      </trkpt>
      <trkpt lat="44.10561" lon="6.20559">
        <ele>915.79</ele>
        <time>2020-01-13T13:43:40Z</time>
      </trkpt>
      <trkpt lat="44.10557" lon="6.20555">
        <ele>916.75</ele>
        <time>2020-01-13T13:43:43Z</time>
      </trkpt>
      <trkpt lat="44.10544" lon="6.20542">
        <ele>916.27</ele>
        <time>2020-01-13T13:43:56Z</time>
      </trkpt>
      <trkpt lat="44.10534" lon="6.20533">
        <ele>915.79</ele>
        <time>2020-01-13T13:44:07Z</time>
      </trkpt>
      <trkpt lat="44.10527" lon="6.20528">
        <ele>916.27</ele>
        <time>2020-01-13T13:44:14Z</time>
      </trkpt>
      <trkpt lat="44.10513" lon="6.20524">
        <ele>915.79</ele>
        <time>2020-01-13T13:44:25Z</time>
      </trkpt>
      <trkpt lat="44.105" lon="6.20523">
        <ele>914.83</ele>
        <time>2020-01-13T13:44:37Z</time>
      </trkpt>
      <trkpt lat="44.10494" lon="6.20523">
        <ele>914.35</ele>
        <time>2020-01-13T13:44:48Z</time>
      </trkpt>
      <trkpt lat="44.10494" lon="6.20523">
        <ele>913.87</ele>
        <time>2020-01-13T13:44:50Z</time>
      </trkpt>
      <trkpt lat="44.10482" lon="6.20522">
        <ele>912.43</ele>
        <time>2020-01-13T13:45:02Z</time>
      </trkpt>
      <trkpt lat="44.10471" lon="6.20523">
        <ele>912.43</ele>
        <time>2020-01-13T13:45:13Z</time>
      </trkpt>
      <trkpt lat="44.10466" lon="6.20526">
        <ele>912.43</ele>
        <time>2020-01-13T13:45:18Z</time>
      </trkpt>
      <trkpt lat="44.10456" lon="6.20535">
        <ele>911.47</ele>
        <time>2020-01-13T13:45:31Z</time>
      </trkpt>
      <trkpt lat="44.10455" lon="6.20537">
        <ele>911.47</ele>
        <time>2020-01-13T13:45:35Z</time>
      </trkpt>
      <trkpt lat="44.10453" lon="6.2054">
        <ele>910.99</ele>
        <time>2020-01-13T13:45:39Z</time>
      </trkpt>
      <trkpt lat="44.10444" lon="6.2055">
        <ele>910.51</ele>
        <time>2020-01-13T13:45:51Z</time>
      </trkpt>
      <trkpt lat="44.10438" lon="6.20553">
        <ele>909.54</ele>
        <time>2020-01-13T13:45:56Z</time>
      </trkpt>
      <trkpt lat="44.10426" lon="6.20561">
        <ele>908.58</ele>
        <time>2020-01-13T13:46:08Z</time>
      </trkpt>
      <trkpt lat="44.10422" lon="6.2056">
        <ele>908.58</ele>
        <time>2020-01-13T13:46:11Z</time>
      </trkpt>
      <trkpt lat="44.10414" lon="6.20554">
        <ele>908.58</ele>
        <time>2020-01-13T13:46:20Z</time>
      </trkpt>
      <trkpt lat="44.10411" lon="6.20537">
        <ele>906.66</ele>
        <time>2020-01-13T13:46:33Z</time>
      </trkpt>
      <trkpt lat="44.1041" lon="6.2052">
        <ele>905.7</ele>
        <time>2020-01-13T13:46:45Z</time>
      </trkpt>
      <trkpt lat="44.10403" lon="6.20507">
        <ele>904.74</ele>
        <time>2020-01-13T13:46:56Z</time>
      </trkpt>
      <trkpt lat="44.104" lon="6.20489">
        <ele>903.78</ele>
        <time>2020-01-13T13:47:07Z</time>
      </trkpt>
      <trkpt lat="44.10401" lon="6.20478">
        <ele>903.3</ele>
        <time>2020-01-13T13:47:14Z</time>
      </trkpt>
      <trkpt lat="44.10401" lon="6.20469">
        <ele>902.82</ele>
        <time>2020-01-13T13:47:20Z</time>
      </trkpt>
      <trkpt lat="44.10401" lon="6.2045">
        <ele>902.33</ele>
        <time>2020-01-13T13:47:32Z</time>
      </trkpt>
      <trkpt lat="44.10398" lon="6.20435">
        <ele>901.37</ele>
        <time>2020-01-13T13:47:43Z</time>
      </trkpt>
      <trkpt lat="44.10397" lon="6.20423">
        <ele>900.89</ele>
        <time>2020-01-13T13:47:56Z</time>
      </trkpt>
      <trkpt lat="44.10397" lon="6.20419">
        <ele>900.89</ele>
        <time>2020-01-13T13:48:02Z</time>
      </trkpt>
      <trkpt lat="44.10397" lon="6.20416">
        <ele>900.41</ele>
        <time>2020-01-13T13:48:04Z</time>
      </trkpt>
      <trkpt lat="44.10395" lon="6.2041">
        <ele>900.41</ele>
        <time>2020-01-13T13:48:08Z</time>
      </trkpt>
      <trkpt lat="44.10394" lon="6.20397">
        <ele>899.45</ele>
        <time>2020-01-13T13:48:16Z</time>
      </trkpt>
      <trkpt lat="44.10394" lon="6.20391">
        <ele>898.97</ele>
        <time>2020-01-13T13:48:20Z</time>
      </trkpt>
      <trkpt lat="44.10392" lon="6.20383">
        <ele>898.49</ele>
        <time>2020-01-13T13:48:26Z</time>
      </trkpt>
      <trkpt lat="44.10387" lon="6.20375">
        <ele>897.05</ele>
        <time>2020-01-13T13:48:33Z</time>
      </trkpt>
      <trkpt lat="44.10384" lon="6.20374">
        <ele>897.05</ele>
        <time>2020-01-13T13:48:35Z</time>
      </trkpt>
      <trkpt lat="44.1038" lon="6.20377">
        <ele>896.09</ele>
        <time>2020-01-13T13:48:40Z</time>
      </trkpt>
      <trkpt lat="44.10376" lon="6.20383">
        <ele>895.61</ele>
        <time>2020-01-13T13:48:50Z</time>
      </trkpt>
      <trkpt lat="44.10376" lon="6.20388">
        <ele>896.09</ele>
        <time>2020-01-13T13:48:53Z</time>
      </trkpt>
      <trkpt lat="44.10377" lon="6.20391">
        <ele>896.09</ele>
        <time>2020-01-13T13:48:55Z</time>
      </trkpt>
      <trkpt lat="44.10375" lon="6.20408">
        <ele>895.12</ele>
        <time>2020-01-13T13:49:07Z</time>
      </trkpt>
      <trkpt lat="44.10375" lon="6.20413">
        <ele>895.12</ele>
        <time>2020-01-13T13:49:10Z</time>
      </trkpt>
      <trkpt lat="44.10371" lon="6.20431">
        <ele>893.68</ele>
        <time>2020-01-13T13:49:22Z</time>
      </trkpt>
      <trkpt lat="44.1037" lon="6.20432">
        <ele>893.2</ele>
        <time>2020-01-13T13:49:24Z</time>
      </trkpt>
      <trkpt lat="44.10369" lon="6.20435">
        <ele>893.2</ele>
        <time>2020-01-13T13:49:26Z</time>
      </trkpt>
      <trkpt lat="44.10366" lon="6.2045">
        <ele>892.72</ele>
        <time>2020-01-13T13:49:36Z</time>
      </trkpt>
      <trkpt lat="44.10365" lon="6.20451">
        <ele>892.24</ele>
        <time>2020-01-13T13:49:55Z</time>
      </trkpt>
      <trkpt lat="44.10363" lon="6.2045">
        <ele>892.24</ele>
        <time>2020-01-13T13:50:08Z</time>
      </trkpt>
      <trkpt lat="44.10363" lon="6.20454">
        <ele>892.24</ele>
        <time>2020-01-13T13:50:20Z</time>
      </trkpt>
      <trkpt lat="44.10363" lon="6.20457">
        <ele>891.76</ele>
        <time>2020-01-13T13:50:22Z</time>
      </trkpt>
      <trkpt lat="44.10358" lon="6.20474">
        <ele>891.28</ele>
        <time>2020-01-13T13:50:34Z</time>
      </trkpt>
      <trkpt lat="44.10355" lon="6.20487">
        <ele>890.8</ele>
        <time>2020-01-13T13:50:44Z</time>
      </trkpt>
      <trkpt lat="44.10354" lon="6.2049">
        <ele>889.84</ele>
        <time>2020-01-13T13:50:46Z</time>
      </trkpt>
      <trkpt lat="44.1035" lon="6.20505">
        <ele>889.36</ele>
        <time>2020-01-13T13:50:57Z</time>
      </trkpt>
      <trkpt lat="44.1034" lon="6.2052">
        <ele>888.4</ele>
        <time>2020-01-13T13:51:10Z</time>
      </trkpt>
      <trkpt lat="44.10333" lon="6.20536">
        <ele>886.95</ele>
        <time>2020-01-13T13:51:22Z</time>
      </trkpt>
      <trkpt lat="44.10333" lon="6.20549">
        <ele>885.99</ele>
        <time>2020-01-13T13:51:31Z</time>
      </trkpt>
      <trkpt lat="44.10335" lon="6.20568">
        <ele>885.51</ele>
        <time>2020-01-13T13:51:43Z</time>
      </trkpt>
      <trkpt lat="44.10335" lon="6.20569">
        <ele>885.51</ele>
        <time>2020-01-13T13:51:44Z</time>
      </trkpt>
      <trkpt lat="44.10335" lon="6.20572">
        <ele>885.03</ele>
        <time>2020-01-13T13:51:46Z</time>
      </trkpt>
      <trkpt lat="44.10336" lon="6.20575">
        <ele>884.55</ele>
        <time>2020-01-13T13:51:48Z</time>
      </trkpt>
      <trkpt lat="44.10343" lon="6.20587">
        <ele>883.59</ele>
        <time>2020-01-13T13:52:00Z</time>
      </trkpt>
      <trkpt lat="44.10344" lon="6.20588">
        <ele>883.11</ele>
        <time>2020-01-13T13:52:01Z</time>
      </trkpt>
      <trkpt lat="44.10347" lon="6.20592">
        <ele>882.15</ele>
        <time>2020-01-13T13:52:06Z</time>
      </trkpt>
      <trkpt lat="44.10348" lon="6.20594">
        <ele>882.15</ele>
        <time>2020-01-13T13:52:08Z</time>
      </trkpt>
      <trkpt lat="44.10353" lon="6.206">
        <ele>881.67</ele>
        <time>2020-01-13T13:52:14Z</time>
      </trkpt>
      <trkpt lat="44.10357" lon="6.2061">
        <ele>880.71</ele>
        <time>2020-01-13T13:52:21Z</time>
      </trkpt>
      <trkpt lat="44.10359" lon="6.20615">
        <ele>881.19</ele>
        <time>2020-01-13T13:52:24Z</time>
      </trkpt>
      <trkpt lat="44.10361" lon="6.20621">
        <ele>879.74</ele>
        <time>2020-01-13T13:52:28Z</time>
      </trkpt>
      <trkpt lat="44.10362" lon="6.20623">
        <ele>880.22</ele>
        <time>2020-01-13T13:52:30Z</time>
      </trkpt>
      <trkpt lat="44.10371" lon="6.20638">
        <ele>879.74</ele>
        <time>2020-01-13T13:52:42Z</time>
      </trkpt>
      <trkpt lat="44.10381" lon="6.2065">
        <ele>878.78</ele>
        <time>2020-01-13T13:52:54Z</time>
      </trkpt>
      <trkpt lat="44.10383" lon="6.20653">
        <ele>878.3</ele>
        <time>2020-01-13T13:52:57Z</time>
      </trkpt>
      <trkpt lat="44.10385" lon="6.20661">
        <ele>878.3</ele>
        <time>2020-01-13T13:53:03Z</time>
      </trkpt>
      <trkpt lat="44.10387" lon="6.20676">
        <ele>877.34</ele>
        <time>2020-01-13T13:53:13Z</time>
      </trkpt>
      <trkpt lat="44.10387" lon="6.20679">
        <ele>877.34</ele>
        <time>2020-01-13T13:53:15Z</time>
      </trkpt>
      <trkpt lat="44.10386" lon="6.20696">
        <ele>876.38</ele>
        <time>2020-01-13T13:53:27Z</time>
      </trkpt>
      <trkpt lat="44.10387" lon="6.207">
        <ele>876.38</ele>
        <time>2020-01-13T13:53:30Z</time>
      </trkpt>
      <trkpt lat="44.10387" lon="6.20703">
        <ele>875.9</ele>
        <time>2020-01-13T13:53:32Z</time>
      </trkpt>
      <trkpt lat="44.10388" lon="6.20718">
        <ele>874.94</ele>
        <time>2020-01-13T13:53:43Z</time>
      </trkpt>
      <trkpt lat="44.10392" lon="6.20733">
        <ele>873.98</ele>
        <time>2020-01-13T13:53:53Z</time>
      </trkpt>
      <trkpt lat="44.10395" lon="6.2075">
        <ele>873.01</ele>
        <time>2020-01-13T13:54:05Z</time>
      </trkpt>
      <trkpt lat="44.10397" lon="6.20759">
        <ele>872.53</ele>
        <time>2020-01-13T13:54:11Z</time>
      </trkpt>
      <trkpt lat="44.10397" lon="6.20762">
        <ele>872.53</ele>
        <time>2020-01-13T13:54:13Z</time>
      </trkpt>
      <trkpt lat="44.10399" lon="6.20769">
        <ele>871.57</ele>
        <time>2020-01-13T13:54:24Z</time>
      </trkpt>
      <trkpt lat="44.10399" lon="6.20773">
        <ele>871.57</ele>
        <time>2020-01-13T13:54:27Z</time>
      </trkpt>
      <trkpt lat="44.10399" lon="6.20777">
        <ele>871.57</ele>
        <time>2020-01-13T13:54:30Z</time>
      </trkpt>
      <trkpt lat="44.104" lon="6.20784">
        <ele>870.61</ele>
        <time>2020-01-13T13:54:35Z</time>
      </trkpt>
      <trkpt lat="44.10399" lon="6.2079">
        <ele>870.61</ele>
        <time>2020-01-13T13:54:40Z</time>
      </trkpt>
      <trkpt lat="44.10401" lon="6.20798">
        <ele>870.13</ele>
        <time>2020-01-13T13:54:47Z</time>
      </trkpt>
      <trkpt lat="44.10401" lon="6.20801">
        <ele>869.65</ele>
        <time>2020-01-13T13:54:49Z</time>
      </trkpt>
      <trkpt lat="44.10402" lon="6.20814">
        <ele>868.69</ele>
        <time>2020-01-13T13:54:58Z</time>
      </trkpt>
      <trkpt lat="44.10402" lon="6.20817">
        <ele>868.69</ele>
        <time>2020-01-13T13:55:00Z</time>
      </trkpt>
      <trkpt lat="44.10402" lon="6.20834">
        <ele>867.73</ele>
        <time>2020-01-13T13:55:12Z</time>
      </trkpt>
      <trkpt lat="44.10402" lon="6.20839">
        <ele>867.25</ele>
        <time>2020-01-13T13:55:15Z</time>
      </trkpt>
      <trkpt lat="44.10402" lon="6.20848">
        <ele>867.25</ele>
        <time>2020-01-13T13:55:21Z</time>
      </trkpt>
      <trkpt lat="44.10402" lon="6.2085">
        <ele>867.25</ele>
        <time>2020-01-13T13:55:23Z</time>
      </trkpt>
      <trkpt lat="44.10402" lon="6.20856">
        <ele>866.77</ele>
        <time>2020-01-13T13:55:27Z</time>
      </trkpt>
      <trkpt lat="44.10402" lon="6.20859">
        <ele>866.77</ele>
        <time>2020-01-13T13:55:29Z</time>
      </trkpt>
      <trkpt lat="44.10402" lon="6.20865">
        <ele>866.29</ele>
        <time>2020-01-13T13:55:33Z</time>
      </trkpt>
      <trkpt lat="44.10398" lon="6.20882">
        <ele>865.8</ele>
        <time>2020-01-13T13:55:45Z</time>
      </trkpt>
      <trkpt lat="44.10394" lon="6.20891">
        <ele>864.84</ele>
        <time>2020-01-13T13:55:56Z</time>
      </trkpt>
      <trkpt lat="44.10392" lon="6.20899">
        <ele>863.88</ele>
        <time>2020-01-13T13:56:04Z</time>
      </trkpt>
      <trkpt lat="44.10389" lon="6.20911">
        <ele>863.4</ele>
        <time>2020-01-13T13:56:15Z</time>
      </trkpt>
      <trkpt lat="44.10385" lon="6.20921">
        <ele>860.52</ele>
        <time>2020-01-13T13:56:30Z</time>
      </trkpt>
      <trkpt lat="44.10385" lon="6.20922">
        <ele>860.52</ele>
        <time>2020-01-13T13:56:31Z</time>
      </trkpt>
      <trkpt lat="44.1038" lon="6.20928">
        <ele>859.08</ele>
        <time>2020-01-13T13:56:40Z</time>
      </trkpt>
      <trkpt lat="44.10376" lon="6.20931">
        <ele>859.08</ele>
        <time>2020-01-13T13:56:55Z</time>
      </trkpt>
      <trkpt lat="44.10376" lon="6.20933">
        <ele>858.11</ele>
        <time>2020-01-13T13:57:06Z</time>
      </trkpt>
      <trkpt lat="44.10372" lon="6.20931">
        <ele>857.15</ele>
        <time>2020-01-13T13:57:17Z</time>
      </trkpt>
      <trkpt lat="44.1037" lon="6.20926">
        <ele>856.67</ele>
        <time>2020-01-13T13:57:29Z</time>
      </trkpt>
      <trkpt lat="44.1037" lon="6.20928">
        <ele>857.15</ele>
        <time>2020-01-13T13:57:31Z</time>
      </trkpt>
      <trkpt lat="44.10366" lon="6.20936">
        <ele>856.19</ele>
        <time>2020-01-13T13:57:43Z</time>
      </trkpt>
      <trkpt lat="44.10366" lon="6.20937">
        <ele>855.71</ele>
        <time>2020-01-13T13:57:45Z</time>
      </trkpt>
      <trkpt lat="44.10359" lon="6.20943">
        <ele>854.27</ele>
        <time>2020-01-13T13:57:57Z</time>
      </trkpt>
      <trkpt lat="44.10351" lon="6.20948">
        <ele>853.31</ele>
        <time>2020-01-13T13:58:09Z</time>
      </trkpt>
      <trkpt lat="44.10348" lon="6.20951">
        <ele>852.83</ele>
        <time>2020-01-13T13:58:19Z</time>
      </trkpt>
      <trkpt lat="44.10338" lon="6.20952">
        <ele>850.42</ele>
        <time>2020-01-13T13:58:32Z</time>
      </trkpt>
      <trkpt lat="44.10329" lon="6.20954">
        <ele>849.46</ele>
        <time>2020-01-13T13:58:44Z</time>
      </trkpt>
      <trkpt lat="44.10327" lon="6.20955">
        <ele>848.98</ele>
        <time>2020-01-13T13:58:47Z</time>
      </trkpt>
      <trkpt lat="44.10322" lon="6.20954">
        <ele>847.54</ele>
        <time>2020-01-13T13:58:53Z</time>
      </trkpt>
      <trkpt lat="44.10317" lon="6.20956">
        <ele>846.1</ele>
        <time>2020-01-13T13:59:06Z</time>
      </trkpt>
      <trkpt lat="44.10311" lon="6.20959">
        <ele>844.18</ele>
        <time>2020-01-13T13:59:20Z</time>
      </trkpt>
      <trkpt lat="44.10311" lon="6.2096">
        <ele>844.18</ele>
        <time>2020-01-13T13:59:21Z</time>
      </trkpt>
      <trkpt lat="44.10308" lon="6.20964">
        <ele>843.69</ele>
        <time>2020-01-13T13:59:32Z</time>
      </trkpt>
      <trkpt lat="44.10309" lon="6.20961">
        <ele>842.73</ele>
        <time>2020-01-13T13:59:51Z</time>
      </trkpt>
      <trkpt lat="44.10302" lon="6.20965">
        <ele>841.29</ele>
        <time>2020-01-13T14:00:03Z</time>
      </trkpt>
      <trkpt lat="44.10301" lon="6.2097">
        <ele>841.29</ele>
        <time>2020-01-13T14:00:08Z</time>
      </trkpt>
      <trkpt lat="44.10302" lon="6.20978">
        <ele>840.81</ele>
        <time>2020-01-13T14:00:18Z</time>
      </trkpt>
      <trkpt lat="44.10304" lon="6.2098">
        <ele>840.81</ele>
        <time>2020-01-13T14:00:48Z</time>
      </trkpt>
      <trkpt lat="44.10304" lon="6.20982">
        <ele>839.85</ele>
        <time>2020-01-13T14:01:03Z</time>
      </trkpt>
      <trkpt lat="44.10303" lon="6.20986">
        <ele>839.37</ele>
        <time>2020-01-13T14:01:15Z</time>
      </trkpt>
      <trkpt lat="44.10301" lon="6.20993">
        <ele>837.45</ele>
        <time>2020-01-13T14:01:28Z</time>
      </trkpt>
      <trkpt lat="44.10298" lon="6.21005">
        <ele>835.52</ele>
        <time>2020-01-13T14:01:42Z</time>
      </trkpt>
      <trkpt lat="44.10299" lon="6.2101">
        <ele>835.52</ele>
        <time>2020-01-13T14:01:55Z</time>
      </trkpt>
      <trkpt lat="44.103" lon="6.21018">
        <ele>835.04</ele>
        <time>2020-01-13T14:02:03Z</time>
      </trkpt>
      <trkpt lat="44.10296" lon="6.21026">
        <ele>833.12</ele>
        <time>2020-01-13T14:02:15Z</time>
      </trkpt>
      <trkpt lat="44.10294" lon="6.21033">
        <ele>831.68</ele>
        <time>2020-01-13T14:02:28Z</time>
      </trkpt>
      <trkpt lat="44.1029" lon="6.21034">
        <ele>830.72</ele>
        <time>2020-01-13T14:02:43Z</time>
      </trkpt>
      <trkpt lat="44.10287" lon="6.21033">
        <ele>830.24</ele>
        <time>2020-01-13T14:02:51Z</time>
      </trkpt>
      <trkpt lat="44.10283" lon="6.21031">
        <ele>829.27</ele>
        <time>2020-01-13T14:03:02Z</time>
      </trkpt>
      <trkpt lat="44.10281" lon="6.21036">
        <ele>828.79</ele>
        <time>2020-01-13T14:03:12Z</time>
      </trkpt>
      <trkpt lat="44.10278" lon="6.21043">
        <ele>827.35</ele>
        <time>2020-01-13T14:03:24Z</time>
      </trkpt>
      <trkpt lat="44.10277" lon="6.21046">
        <ele>826.39</ele>
        <time>2020-01-13T14:03:39Z</time>
      </trkpt>
      <trkpt lat="44.10275" lon="6.21051">
        <ele>824.95</ele>
        <time>2020-01-13T14:03:51Z</time>
      </trkpt>
      <trkpt lat="44.10273" lon="6.21052">
        <ele>825.91</ele>
        <time>2020-01-13T14:04:12Z</time>
      </trkpt>
      <trkpt lat="44.10272" lon="6.21055">
        <ele>824.95</ele>
        <time>2020-01-13T14:04:26Z</time>
      </trkpt>
      <trkpt lat="44.10271" lon="6.21056">
        <ele>824.47</ele>
        <time>2020-01-13T14:05:01Z</time>
      </trkpt>
      <trkpt lat="44.1027" lon="6.21059">
        <ele>823.51</ele>
        <time>2020-01-13T14:05:16Z</time>
      </trkpt>
      <trkpt lat="44.1027" lon="6.21064">
        <ele>823.03</ele>
        <time>2020-01-13T14:05:30Z</time>
      </trkpt>
      <trkpt lat="44.10272" lon="6.21073">
        <ele>821.58</ele>
        <time>2020-01-13T14:05:46Z</time>
      </trkpt>
      <trkpt lat="44.10272" lon="6.21074">
        <ele>821.58</ele>
        <time>2020-01-13T14:05:47Z</time>
      </trkpt>
      <trkpt lat="44.10274" lon="6.21083">
        <ele>820.14</ele>
        <time>2020-01-13T14:05:59Z</time>
      </trkpt>
      <trkpt lat="44.10275" lon="6.21087">
        <ele>819.18</ele>
        <time>2020-01-13T14:06:11Z</time>
      </trkpt>
      <trkpt lat="44.10276" lon="6.21089">
        <ele>818.22</ele>
        <time>2020-01-13T14:06:23Z</time>
      </trkpt>
      <trkpt lat="44.10279" lon="6.21098">
        <ele>817.74</ele>
        <time>2020-01-13T14:06:35Z</time>
      </trkpt>
      <trkpt lat="44.10278" lon="6.21102">
        <ele>816.3</ele>
        <time>2020-01-13T14:06:48Z</time>
      </trkpt>
      <trkpt lat="44.10276" lon="6.21105">
        <ele>816.3</ele>
        <time>2020-01-13T14:07:17Z</time>
      </trkpt>
      <trkpt lat="44.10273" lon="6.21109">
        <ele>814.85</ele>
        <time>2020-01-13T14:07:27Z</time>
      </trkpt>
      <trkpt lat="44.1027" lon="6.21111">
        <ele>813.89</ele>
        <time>2020-01-13T14:07:33Z</time>
      </trkpt>
      <trkpt lat="44.10269" lon="6.21116">
        <ele>813.41</ele>
        <time>2020-01-13T14:07:50Z</time>
      </trkpt>
      <trkpt lat="44.10268" lon="6.21116">
        <ele>813.41</ele>
        <time>2020-01-13T14:08:21Z</time>
      </trkpt>
      <trkpt lat="44.10267" lon="6.21121">
        <ele>812.93</ele>
        <time>2020-01-13T14:08:33Z</time>
      </trkpt>
      <trkpt lat="44.10264" lon="6.21122">
        <ele>812.45</ele>
        <time>2020-01-13T14:08:38Z</time>
      </trkpt>
      <trkpt lat="44.10262" lon="6.21124">
        <ele>811.97</ele>
        <time>2020-01-13T14:08:44Z</time>
      </trkpt>
      <trkpt lat="44.10257" lon="6.21127">
        <ele>811.49</ele>
        <time>2020-01-13T14:08:58Z</time>
      </trkpt>
      <trkpt lat="44.10258" lon="6.21129">
        <ele>811.49</ele>
        <time>2020-01-13T14:09:09Z</time>
      </trkpt>
      <trkpt lat="44.1025" lon="6.21126">
        <ele>810.05</ele>
        <time>2020-01-13T14:09:20Z</time>
      </trkpt>
      <trkpt lat="44.10246" lon="6.21123">
        <ele>810.53</ele>
        <time>2020-01-13T14:09:26Z</time>
      </trkpt>
      <trkpt lat="44.10238" lon="6.21125">
        <ele>809.09</ele>
        <time>2020-01-13T14:09:37Z</time>
      </trkpt>
      <trkpt lat="44.10234" lon="6.21126">
        <ele>808.13</ele>
        <time>2020-01-13T14:09:51Z</time>
      </trkpt>
      <trkpt lat="44.10231" lon="6.21132">
        <ele>806.68</ele>
        <time>2020-01-13T14:10:13Z</time>
      </trkpt>
      <trkpt lat="44.10229" lon="6.21137">
        <ele>805.72</ele>
        <time>2020-01-13T14:10:25Z</time>
      </trkpt>
      <trkpt lat="44.10226" lon="6.21143">
        <ele>804.28</ele>
        <time>2020-01-13T14:10:36Z</time>
      </trkpt>
      <trkpt lat="44.10225" lon="6.21145">
        <ele>803.8</ele>
        <time>2020-01-13T14:10:42Z</time>
      </trkpt>
      <trkpt lat="44.10221" lon="6.21152">
        <ele>802.36</ele>
        <time>2020-01-13T14:10:55Z</time>
      </trkpt>
      <trkpt lat="44.10217" lon="6.21157">
        <ele>800.92</ele>
        <time>2020-01-13T14:11:09Z</time>
      </trkpt>
      <trkpt lat="44.10211" lon="6.21163">
        <ele>799.95</ele>
        <time>2020-01-13T14:11:22Z</time>
      </trkpt>
      <trkpt lat="44.1021" lon="6.21163">
        <ele>799.47</ele>
        <time>2020-01-13T14:11:23Z</time>
      </trkpt>
      <trkpt lat="44.10203" lon="6.21169">
        <ele>798.51</ele>
        <time>2020-01-13T14:11:34Z</time>
      </trkpt>
      <trkpt lat="44.10203" lon="6.21172">
        <ele>798.99</ele>
        <time>2020-01-13T14:12:06Z</time>
      </trkpt>
      <trkpt lat="44.10201" lon="6.21172">
        <ele>798.99</ele>
        <time>2020-01-13T14:12:38Z</time>
      </trkpt>
      <trkpt lat="44.102" lon="6.21172">
        <ele>798.03</ele>
        <time>2020-01-13T14:12:52Z</time>
      </trkpt>
      <trkpt lat="44.10199" lon="6.21177">
        <ele>796.59</ele>
        <time>2020-01-13T14:13:07Z</time>
      </trkpt>
      <trkpt lat="44.10196" lon="6.21178">
        <ele>796.59</ele>
        <time>2020-01-13T14:13:14Z</time>
      </trkpt>
      <trkpt lat="44.10191" lon="6.2118">
        <ele>795.63</ele>
        <time>2020-01-13T14:13:25Z</time>
      </trkpt>
      <trkpt lat="44.1019" lon="6.21179">
        <ele>794.67</ele>
        <time>2020-01-13T14:13:41Z</time>
      </trkpt>
      <trkpt lat="44.10187" lon="6.21176">
        <ele>793.22</ele>
        <time>2020-01-13T14:13:54Z</time>
      </trkpt>
      <trkpt lat="44.10185" lon="6.21175">
        <ele>791.78</ele>
        <time>2020-01-13T14:14:05Z</time>
      </trkpt>
      <trkpt lat="44.10182" lon="6.21169">
        <ele>790.82</ele>
        <time>2020-01-13T14:14:18Z</time>
      </trkpt>
      <trkpt lat="44.10181" lon="6.21166">
        <ele>789.38</ele>
        <time>2020-01-13T14:14:30Z</time>
      </trkpt>
      <trkpt lat="44.10179" lon="6.21164">
        <ele>788.9</ele>
        <time>2020-01-13T14:14:44Z</time>
      </trkpt>
      <trkpt lat="44.10176" lon="6.2116">
        <ele>786.98</ele>
        <time>2020-01-13T14:14:56Z</time>
      </trkpt>
      <trkpt lat="44.10175" lon="6.21157">
        <ele>786.02</ele>
        <time>2020-01-13T14:15:12Z</time>
      </trkpt>
      <trkpt lat="44.10174" lon="6.21156">
        <ele>785.05</ele>
        <time>2020-01-13T14:15:25Z</time>
      </trkpt>
      <trkpt lat="44.10169" lon="6.2115">
        <ele>783.61</ele>
        <time>2020-01-13T14:15:37Z</time>
      </trkpt>
      <trkpt lat="44.10163" lon="6.21148">
        <ele>782.65</ele>
        <time>2020-01-13T14:15:51Z</time>
      </trkpt>
      <trkpt lat="44.1016" lon="6.21149">
        <ele>781.21</ele>
        <time>2020-01-13T14:16:05Z</time>
      </trkpt>
      <trkpt lat="44.10157" lon="6.21149">
        <ele>780.25</ele>
        <time>2020-01-13T14:16:18Z</time>
      </trkpt>
      <trkpt lat="44.10151" lon="6.21148">
        <ele>778.32</ele>
        <time>2020-01-13T14:16:30Z</time>
      </trkpt>
      <trkpt lat="44.10147" lon="6.21147">
        <ele>777.36</ele>
        <time>2020-01-13T14:16:46Z</time>
      </trkpt>
      <trkpt lat="44.1014" lon="6.21147">
        <ele>775.44</ele>
        <time>2020-01-13T14:17:03Z</time>
      </trkpt>
      <trkpt lat="44.10134" lon="6.2115">
        <ele>773.52</ele>
        <time>2020-01-13T14:17:14Z</time>
      </trkpt>
      <trkpt lat="44.10134" lon="6.2115">
        <ele>773.04</ele>
        <time>2020-01-13T14:17:15Z</time>
      </trkpt>
      <trkpt lat="44.10128" lon="6.2115">
        <ele>772.56</ele>
        <time>2020-01-13T14:17:28Z</time>
      </trkpt>
      <trkpt lat="44.10126" lon="6.21151">
        <ele>772.56</ele>
        <time>2020-01-13T14:17:35Z</time>
      </trkpt>
      <trkpt lat="44.10121" lon="6.21151">
        <ele>770.63</ele>
        <time>2020-01-13T14:17:48Z</time>
      </trkpt>
      <trkpt lat="44.10117" lon="6.21152">
        <ele>768.71</ele>
        <time>2020-01-13T14:17:55Z</time>
      </trkpt>
      <trkpt lat="44.10114" lon="6.21153">
        <ele>768.23</ele>
        <time>2020-01-13T14:18:00Z</time>
      </trkpt>
      <trkpt lat="44.1011" lon="6.21157">
        <ele>767.27</ele>
        <time>2020-01-13T14:18:06Z</time>
      </trkpt>
      <trkpt lat="44.10107" lon="6.21163">
        <ele>766.31</ele>
        <time>2020-01-13T14:18:12Z</time>
      </trkpt>
      <trkpt lat="44.10104" lon="6.21166">
        <ele>766.31</ele>
        <time>2020-01-13T14:18:16Z</time>
      </trkpt>
      <trkpt lat="44.10102" lon="6.21169">
        <ele>765.35</ele>
        <time>2020-01-13T14:18:22Z</time>
      </trkpt>
      <trkpt lat="44.10097" lon="6.21178">
        <ele>763.9</ele>
        <time>2020-01-13T14:18:34Z</time>
      </trkpt>
      <trkpt lat="44.10096" lon="6.21182">
        <ele>763.42</ele>
        <time>2020-01-13T14:18:39Z</time>
      </trkpt>
      <trkpt lat="44.10086" lon="6.21187">
        <ele>761.98</ele>
        <time>2020-01-13T14:18:52Z</time>
      </trkpt>
      <trkpt lat="44.10075" lon="6.21191">
        <ele>761.5</ele>
        <time>2020-01-13T14:19:06Z</time>
      </trkpt>
      <trkpt lat="44.10071" lon="6.21197">
        <ele>759.58</ele>
        <time>2020-01-13T14:19:20Z</time>
      </trkpt>
      <trkpt lat="44.1007" lon="6.21198">
        <ele>758.62</ele>
        <time>2020-01-13T14:19:22Z</time>
      </trkpt>
      <trkpt lat="44.10066" lon="6.21204">
        <ele>757.66</ele>
        <time>2020-01-13T14:19:35Z</time>
      </trkpt>
      <trkpt lat="44.10065" lon="6.21205">
        <ele>756.69</ele>
        <time>2020-01-13T14:19:39Z</time>
      </trkpt>
      <trkpt lat="44.10061" lon="6.21207">
        <ele>755.73</ele>
        <time>2020-01-13T14:19:54Z</time>
      </trkpt>
      <trkpt lat="44.10058" lon="6.21211">
        <ele>754.29</ele>
        <time>2020-01-13T14:20:06Z</time>
      </trkpt>
      <trkpt lat="44.10055" lon="6.21212">
        <ele>752.85</ele>
        <time>2020-01-13T14:20:16Z</time>
      </trkpt>
      <trkpt lat="44.10052" lon="6.21216">
        <ele>750.93</ele>
        <time>2020-01-13T14:20:31Z</time>
      </trkpt>
      <trkpt lat="44.10049" lon="6.21215">
        <ele>749.97</ele>
        <time>2020-01-13T14:20:43Z</time>
      </trkpt>
      <trkpt lat="44.10046" lon="6.21217">
        <ele>748.52</ele>
        <time>2020-01-13T14:20:56Z</time>
      </trkpt>
      <trkpt lat="44.10046" lon="6.2122">
        <ele>748.52</ele>
        <time>2020-01-13T14:21:16Z</time>
      </trkpt>
      <trkpt lat="44.10045" lon="6.21223">
        <ele>748.04</ele>
        <time>2020-01-13T14:21:29Z</time>
      </trkpt>
      <trkpt lat="44.10041" lon="6.21221">
        <ele>747.56</ele>
        <time>2020-01-13T14:21:41Z</time>
      </trkpt>
      <trkpt lat="44.10039" lon="6.21221">
        <ele>746.12</ele>
        <time>2020-01-13T14:21:55Z</time>
      </trkpt>
      <trkpt lat="44.10038" lon="6.21223">
        <ele>745.64</ele>
        <time>2020-01-13T14:22:11Z</time>
      </trkpt>
      <trkpt lat="44.10035" lon="6.21224">
        <ele>744.2</ele>
        <time>2020-01-13T14:22:24Z</time>
      </trkpt>
      <trkpt lat="44.10031" lon="6.21223">
        <ele>742.76</ele>
        <time>2020-01-13T14:22:39Z</time>
      </trkpt>
      <trkpt lat="44.10031" lon="6.21222">
        <ele>743.24</ele>
        <time>2020-01-13T14:22:41Z</time>
      </trkpt>
      <trkpt lat="44.10026" lon="6.21224">
        <ele>741.79</ele>
        <time>2020-01-13T14:22:52Z</time>
      </trkpt>
      <trkpt lat="44.10024" lon="6.21227">
        <ele>740.35</ele>
        <time>2020-01-13T14:23:04Z</time>
      </trkpt>
      <trkpt lat="44.10021" lon="6.21227">
        <ele>739.39</ele>
        <time>2020-01-13T14:23:18Z</time>
      </trkpt>
      <trkpt lat="44.1002" lon="6.21225">
        <ele>738.91</ele>
        <time>2020-01-13T14:23:35Z</time>
      </trkpt>
      <trkpt lat="44.10019" lon="6.21226">
        <ele>736.51</ele>
        <time>2020-01-13T14:23:50Z</time>
      </trkpt>
      <trkpt lat="44.10015" lon="6.21222">
        <ele>736.99</ele>
        <time>2020-01-13T14:23:56Z</time>
      </trkpt>
      <trkpt lat="44.10007" lon="6.21223">
        <ele>736.03</ele>
        <time>2020-01-13T14:24:08Z</time>
      </trkpt>
      <trkpt lat="44.10006" lon="6.21223">
        <ele>736.51</ele>
        <time>2020-01-13T14:24:10Z</time>
      </trkpt>
      <trkpt lat="44.09997" lon="6.21221">
        <ele>735.55</ele>
        <time>2020-01-13T14:24:22Z</time>
      </trkpt>
      <trkpt lat="44.09999" lon="6.21221">
        <ele>735.07</ele>
        <time>2020-01-13T14:24:37Z</time>
      </trkpt>
      <trkpt lat="44.09996" lon="6.21217">
        <ele>735.07</ele>
        <time>2020-01-13T14:24:58Z</time>
      </trkpt>
      <trkpt lat="44.09991" lon="6.21211">
        <ele>735.07</ele>
        <time>2020-01-13T14:25:29Z</time>
      </trkpt>
      <trkpt lat="44.09988" lon="6.2121">
        <ele>735.55</ele>
        <time>2020-01-13T14:25:43Z</time>
      </trkpt>
      <trkpt lat="44.09988" lon="6.21207">
        <ele>735.55</ele>
        <time>2020-01-13T14:26:02Z</time>
      </trkpt>
      <trkpt lat="44.09989" lon="6.21207">
        <ele>735.55</ele>
        <time>2020-01-13T14:26:32Z</time>
      </trkpt>
      <trkpt lat="44.09988" lon="6.21208">
        <ele>735.55</ele>
        <time>2020-01-13T14:26:57Z</time>
      </trkpt>
      <trkpt lat="44.09988" lon="6.21207">
        <ele>736.03</ele>
        <time>2020-01-13T14:27:16Z</time>
      </trkpt>
      <trkpt lat="44.09989" lon="6.21206">
        <ele>736.03</ele>
        <time>2020-01-13T14:27:34Z</time>
      </trkpt>
      <trkpt lat="44.09989" lon="6.21208">
        <ele>736.51</ele>
        <time>2020-01-13T14:27:55Z</time>
      </trkpt>
      <trkpt lat="44.09992" lon="6.21207">
        <ele>736.03</ele>
        <time>2020-01-13T14:28:30Z</time>
      </trkpt>
      <trkpt lat="44.09981" lon="6.21201">
        <ele>736.51</ele>
        <time>2020-01-13T14:29:03Z</time>
      </trkpt>
      <trkpt lat="44.0999" lon="6.21208">
        <ele>736.99</ele>
        <time>2020-01-13T14:29:38Z</time>
      </trkpt>
      <trkpt lat="44.0999" lon="6.21209">
        <ele>736.99</ele>
        <time>2020-01-13T14:30:09Z</time>
      </trkpt>
    </trkseg>
  </trk>
</gpx>